AZA797 WSSS-LIRF
Flight info
| Callsign | AZA797 |
|---|---|
| Flight time | N/A |
| Altitude | 32000 |
| Route | AROSO3A AROSO Y513 KALIL Y501 RINBA Y503 VPL P628 URKOK/N0499F340 P628 VIKIT/N0492F360 P628 RK G202 ZB L750 RANAH B449 ETRAP/N0477F380 B447 KRS B143 TUNEK A909 RODAR M11 REBLO UM11 CRM UM688 EKSUK UL852 TIVUG UM10 HAKAN UW702 GUMRU/N0483F400 UW702 EKI UG12 GOLDO UN79 PINDO DCT PAPIZ DCT ESODU/N0477F330 DCT ASPIR DCT MOPUV |
| Aircraft | B742/H-SDE1E2E3FGHIJ2J3J4J5M1RWXY/LB1D1 |
Departure
| Time | 2026-05-04 10:05 |
|---|---|
| Airport | Singapore Changi Airport (WSSS) |
Arrival
| Time | N/A |
|---|---|
| Airport | Rome–Fiumicino Leonardo da Vinci International Airport (LIRF) |
| Time | Latitude | Longitude | Altitude | Speed | Heading |
|---|---|---|---|---|---|
| 2026-05-04 09:51 | 1.35112 | 103.98834 | 31 ft | 0 kts | 290° |
| 2026-05-04 09:58 | 1.35107 | 103.98848 | 31 ft | 4 kts | 287° |
| 2026-05-04 09:58 | 1.35100 | 103.98874 | 30 ft | 4 kts | 279° |
| 2026-05-04 09:58 | 1.35096 | 103.98900 | 28 ft | 4 kts | 275° |
| 2026-05-04 10:00 | 1.35095 | 103.98914 | 28 ft | 0 kts | 274° |
| 2026-05-04 10:02 | 1.34648 | 103.99050 | 30 ft | 17 kts | 211° |
| 2026-05-04 10:04 | 1.33532 | 103.98776 | 25 ft | 28 kts | 25° |
| 2026-05-04 10:04 | 1.33810 | 103.98880 | 28 ft | 73 kts | 21° |
| 2026-05-04 10:04 | 1.34519 | 103.99185 | 30 ft | 147 kts | 23° |
| 2026-05-04 10:04 | 1.35647 | 103.99646 | 73 ft | 194 kts | 22° |
| 2026-05-04 10:05 | 1.36879 | 104.00191 | 854 ft | 182 kts | 24° |
| 2026-05-04 10:05 | 1.38078 | 104.00729 | 1632 ft | 198 kts | 23° |
| 2026-05-04 10:05 | 1.39345 | 104.01273 | 2248 ft | 203 kts | 21° |
| 2026-05-04 10:05 | 1.40651 | 104.01824 | 2921 ft | 204 kts | 22° |
| 2026-05-04 10:06 | 1.41996 | 104.02391 | 3312 ft | 221 kts | 21° |
| 2026-05-04 10:06 | 1.43484 | 104.03018 | 3445 ft | 242 kts | 22° |
| 2026-05-04 10:06 | 1.45089 | 104.03697 | 3592 ft | 259 kts | 22° |
| 2026-05-04 10:08 | 1.55543 | 104.02111 | 5104 ft | 293 kts | 330° |
| 2026-05-04 10:08 | 1.57351 | 104.01100 | 5407 ft | 299 kts | 330° |
| 2026-05-04 10:08 | 1.59179 | 104.00084 | 5856 ft | 302 kts | 330° |
| 2026-05-04 10:08 | 1.61028 | 103.99063 | 6538 ft | 305 kts | 330° |
| 2026-05-04 10:09 | 1.62901 | 103.98031 | 7259 ft | 309 kts | 330° |
| 2026-05-04 10:09 | 1.64793 | 103.96992 | 7955 ft | 312 kts | 330° |
| 2026-05-04 10:09 | 1.66710 | 103.95941 | 8643 ft | 316 kts | 331° |
| 2026-05-04 10:09 | 1.68647 | 103.94880 | 9312 ft | 320 kts | 331° |
| 2026-05-04 10:10 | 1.70618 | 103.93801 | 9939 ft | 325 kts | 331° |
| 2026-05-04 10:10 | 1.72669 | 103.92678 | 10095 ft | 347 kts | 331° |
| 2026-05-04 10:10 | 1.74804 | 103.91474 | 10264 ft | 364 kts | 326° |
| 2026-05-04 10:10 | 1.76735 | 103.89822 | 10846 ft | 369 kts | 313° |
| 2026-05-04 10:11 | 1.78413 | 103.87858 | 11415 ft | 374 kts | 308° |
| 2026-05-04 10:11 | 1.80001 | 103.85775 | 12006 ft | 379 kts | 307° |
| 2026-05-04 10:11 | 1.81580 | 103.83645 | 12590 ft | 383 kts | 307° |
| 2026-05-04 10:11 | 1.83179 | 103.81493 | 13167 ft | 387 kts | 307° |
| 2026-05-04 10:12 | 1.84806 | 103.79326 | 13734 ft | 391 kts | 307° |
| 2026-05-04 10:12 | 1.86459 | 103.77144 | 14211 ft | 395 kts | 308° |
| 2026-05-04 10:12 | 1.88132 | 103.74950 | 14705 ft | 398 kts | 308° |
| 2026-05-04 10:12 | 1.89800 | 103.72769 | 15169 ft | 402 kts | 308° |
| 2026-05-04 10:13 | 1.91524 | 103.70513 | 15665 ft | 405 kts | 308° |
| 2026-05-04 10:13 | 1.93221 | 103.68293 | 16113 ft | 408 kts | 308° |
| 2026-05-04 10:13 | 1.94951 | 103.66029 | 16570 ft | 411 kts | 308° |
| 2026-05-04 10:13 | 1.96696 | 103.63745 | 17027 ft | 414 kts | 308° |
| 2026-05-04 10:14 | 1.98457 | 103.61441 | 17467 ft | 418 kts | 308° |
| 2026-05-04 10:14 | 2.00226 | 103.59127 | 17910 ft | 421 kts | 308° |
| 2026-05-04 10:16 | 2.12914 | 103.42521 | 20452 ft | 438 kts | 308° |
| 2026-05-04 10:16 | 2.14685 | 103.39989 | 20780 ft | 441 kts | 300° |
| 2026-05-04 10:16 | 2.15960 | 103.37199 | 21125 ft | 443 kts | 290° |
| 2026-05-04 10:16 | 2.16903 | 103.34255 | 21468 ft | 446 kts | 286° |
| 2026-05-04 10:17 | 2.17715 | 103.31256 | 21811 ft | 449 kts | 284° |
| 2026-05-04 10:17 | 2.18495 | 103.28259 | 22183 ft | 451 kts | 284° |
| 2026-05-04 10:19 | 2.24582 | 103.06691 | 24635 ft | 468 kts | 286° |
| 2026-05-04 10:19 | 2.25477 | 103.03597 | 24968 ft | 470 kts | 286° |
| 2026-05-04 10:19 | 2.26391 | 103.00437 | 25310 ft | 472 kts | 286° |
| 2026-05-04 10:19 | 2.27305 | 102.97271 | 25649 ft | 475 kts | 286° |
| 2026-05-04 10:20 | 2.28227 | 102.94082 | 25972 ft | 477 kts | 286° |
| 2026-05-04 10:20 | 2.29148 | 102.90891 | 26303 ft | 479 kts | 286° |
| 2026-05-04 10:20 | 2.30076 | 102.87677 | 26631 ft | 481 kts | 286° |
| 2026-05-04 10:20 | 2.30998 | 102.84481 | 26957 ft | 484 kts | 286° |
| 2026-05-04 10:21 | 2.31936 | 102.81233 | 27278 ft | 486 kts | 286° |
| 2026-05-04 10:21 | 2.32876 | 102.77975 | 27580 ft | 488 kts | 286° |
| 2026-05-04 10:21 | 2.33822 | 102.74696 | 27903 ft | 490 kts | 286° |
| 2026-05-04 10:21 | 2.34760 | 102.71447 | 28194 ft | 493 kts | 286° |
| 2026-05-04 10:22 | 2.36671 | 102.64825 | 28802 ft | 497 kts | 286° |
| 2026-05-04 10:22 | 2.37633 | 102.61490 | 29093 ft | 499 kts | 286° |
| 2026-05-04 10:22 | 2.38601 | 102.58132 | 29373 ft | 502 kts | 286° |
| 2026-05-04 10:23 | 2.39572 | 102.54763 | 29646 ft | 504 kts | 286° |
| 2026-05-04 10:23 | 2.40533 | 102.51427 | 29888 ft | 506 kts | 286° |
| 2026-05-04 10:25 | 2.50412 | 102.29294 | 31720 ft | 501 kts | 320° |
| 2026-05-04 10:25 | 2.55981 | 102.25065 | 31828 ft | 504 kts | 325° |
| 2026-05-04 10:26 | 2.61660 | 102.20942 | 31839 ft | 505 kts | 323° |
| 2026-05-04 10:26 | 2.67223 | 102.16643 | 31837 ft | 505 kts | 322° |
| 2026-05-04 10:27 | 2.72729 | 102.12261 | 31831 ft | 505 kts | 322° |
| 2026-05-04 10:27 | 2.78197 | 102.07894 | 31834 ft | 505 kts | 322° |
| 2026-05-04 10:28 | 2.83704 | 102.03505 | 31835 ft | 505 kts | 322° |
| 2026-05-04 10:28 | 2.89206 | 101.99126 | 31833 ft | 505 kts | 322° |
| 2026-05-04 10:29 | 2.94718 | 101.94740 | 31830 ft | 505 kts | 322° |
| 2026-05-04 10:29 | 3.00181 | 101.90392 | 31834 ft | 505 kts | 322° |
| 2026-05-04 10:30 | 3.05692 | 101.86005 | 31837 ft | 505 kts | 322° |
| 2026-05-04 10:30 | 3.11193 | 101.81624 | 31834 ft | 505 kts | 322° |
| 2026-05-04 10:31 | 3.16663 | 101.77268 | 31834 ft | 505 kts | 322° |
| 2026-05-04 10:32 | 3.36574 | 101.62964 | 31845 ft | 503 kts | 336° |
| 2026-05-04 10:33 | 3.43024 | 101.60208 | 31850 ft | 503 kts | 338° |
| 2026-05-04 10:33 | 3.49434 | 101.57468 | 31851 ft | 503 kts | 337° |
| 2026-05-04 10:34 | 3.55849 | 101.54629 | 31850 ft | 503 kts | 336° |
| 2026-05-04 10:34 | 3.62239 | 101.51763 | 31852 ft | 503 kts | 336° |
| 2026-05-04 10:35 | 3.68604 | 101.48907 | 31851 ft | 503 kts | 336° |
| 2026-05-04 10:35 | 3.75013 | 101.46034 | 31847 ft | 503 kts | 336° |
| 2026-05-04 10:36 | 3.81425 | 101.43161 | 31853 ft | 503 kts | 336° |
| 2026-05-04 10:36 | 3.87786 | 101.40320 | 31851 ft | 503 kts | 337° |
| 2026-05-04 10:37 | 3.94195 | 101.37469 | 31851 ft | 503 kts | 337° |
| 2026-05-04 10:37 | 4.00611 | 101.34617 | 31855 ft | 503 kts | 337° |
| 2026-05-04 10:39 | 4.21921 | 101.25135 | 31861 ft | 503 kts | 336° |
| 2026-05-04 10:40 | 4.28328 | 101.22283 | 31857 ft | 503 kts | 336° |
| 2026-05-04 10:40 | 4.34722 | 101.19436 | 31847 ft | 503 kts | 336° |
| 2026-05-04 10:41 | 4.41096 | 101.16598 | 31842 ft | 503 kts | 336° |
| 2026-05-04 10:41 | 4.47498 | 101.13746 | 31833 ft | 503 kts | 336° |
| 2026-05-04 10:42 | 4.53909 | 101.10891 | 31830 ft | 503 kts | 336° |
| 2026-05-04 10:42 | 4.60284 | 101.08075 | 31828 ft | 503 kts | 337° |
| 2026-05-04 10:43 | 4.66719 | 101.05280 | 31830 ft | 503 kts | 337° |
| 2026-05-04 10:45 | 4.92381 | 100.94144 | 31855 ft | 502 kts | 337° |
| 2026-05-04 10:45 | 4.98806 | 100.91352 | 31847 ft | 503 kts | 337° |
| 2026-05-04 10:46 | 5.05189 | 100.88577 | 31844 ft | 503 kts | 337° |
| 2026-05-04 10:46 | 5.11624 | 100.85780 | 31840 ft | 502 kts | 337° |
| 2026-05-04 10:47 | 5.18042 | 100.82990 | 31845 ft | 503 kts | 337° |
| 2026-05-04 10:47 | 5.24435 | 100.80209 | 31838 ft | 503 kts | 337° |
| 2026-05-04 10:49 | 5.47564 | 100.65185 | 31820 ft | 504 kts | 311° |
| 2026-05-04 10:50 | 5.52289 | 100.59957 | 31815 ft | 504 kts | 313° |
| 2026-05-04 10:52 | 5.71798 | 100.39735 | 31817 ft | 505 kts | 314° |
| 2026-05-04 10:52 | 5.76672 | 100.34696 | 31820 ft | 505 kts | 314° |
| 2026-05-04 10:54 | 5.96267 | 100.14423 | 31842 ft | 506 kts | 314° |
| 2026-05-04 10:56 | 6.15867 | 99.94116 | 31835 ft | 506 kts | 314° |
| 2026-05-04 10:57 | 6.20746 | 99.89060 | 31837 ft | 506 kts | 314° |
| 2026-05-04 10:57 | 6.25651 | 99.83975 | 31833 ft | 506 kts | 314° |
| 2026-05-04 10:58 | 6.30529 | 99.78916 | 31831 ft | 506 kts | 314° |
| 2026-05-04 10:58 | 6.35325 | 99.73722 | 31830 ft | 505 kts | 307° |
| 2026-05-04 10:59 | 6.38663 | 99.67574 | 31832 ft | 505 kts | 290° |
| 2026-05-04 10:59 | 6.40864 | 99.60834 | 31832 ft | 506 kts | 287° |
| 2026-05-04 11:00 | 6.43084 | 99.54098 | 31834 ft | 507 kts | 289° |
| 2026-05-04 11:02 | 6.52842 | 99.27531 | 31844 ft | 508 kts | 290° |
| 2026-05-04 11:05 | 6.71239 | 98.77527 | 31851 ft | 508 kts | 290° |
| 2026-05-04 11:06 | 6.73691 | 98.70851 | 31859 ft | 508 kts | 290° |
| 2026-05-04 11:06 | 6.76145 | 98.64165 | 31852 ft | 508 kts | 290° |
| 2026-05-04 11:10 | 6.93226 | 98.17520 | 31847 ft | 508 kts | 290° |
| 2026-05-04 11:12 | 7.04612 | 97.95861 | 31852 ft | 506 kts | 322° |
| 2026-05-04 11:12 | 7.07484 | 97.93804 | 31849 ft | 506 kts | 327° |
| 2026-05-04 11:12 | 7.13384 | 97.89997 | 31858 ft | 506 kts | 327° |
| 2026-05-04 11:13 | 7.19188 | 97.85967 | 31853 ft | 506 kts | 324° |
| 2026-05-04 11:13 | 7.24872 | 97.81768 | 31856 ft | 506 kts | 324° |
| 2026-05-04 11:14 | 7.30498 | 97.77549 | 31856 ft | 506 kts | 323° |
| 2026-05-04 11:16 | 7.53125 | 97.60651 | 31842 ft | 505 kts | 323° |
| 2026-05-04 11:16 | 7.58688 | 97.56496 | 31845 ft | 499 kts | 323° |
| 2026-05-04 11:17 | 7.64299 | 97.52306 | 31847 ft | 499 kts | 323° |
| 2026-05-04 11:19 | 7.86657 | 97.35621 | 31846 ft | 501 kts | 323° |
| 2026-05-04 11:19 | 7.92233 | 97.31458 | 31843 ft | 502 kts | 323° |
| 2026-05-04 11:20 | 7.97867 | 97.27250 | 31856 ft | 502 kts | 323° |
| 2026-05-04 11:20 | 8.03452 | 97.23077 | 31856 ft | 502 kts | 323° |
| 2026-05-04 11:22 | 8.17369 | 97.03005 | 31850 ft | 504 kts | 300° |
| 2026-05-04 11:22 | 8.19124 | 96.99987 | 31858 ft | 504 kts | 301° |
| 2026-05-04 11:23 | 8.22745 | 96.93903 | 31858 ft | 504 kts | 301° |
| 2026-05-04 11:25 | 8.35411 | 96.72704 | 31857 ft | 504 kts | 301° |
| 2026-05-04 11:25 | 8.38417 | 96.67659 | 31846 ft | 504 kts | 301° |
| 2026-05-04 11:27 | 8.54660 | 96.40357 | 31847 ft | 504 kts | 301° |
| 2026-05-04 11:28 | 8.58273 | 96.34274 | 31844 ft | 504 kts | 301° |
| 2026-05-04 11:28 | 8.61888 | 96.28190 | 31848 ft | 504 kts | 301° |
| 2026-05-04 11:29 | 8.65497 | 96.22114 | 31847 ft | 504 kts | 301° |
| 2026-05-04 11:29 | 8.69093 | 96.16057 | 31847 ft | 504 kts | 301° |
| 2026-05-04 11:33 | 8.94334 | 95.73419 | 31858 ft | 504 kts | 301° |
| 2026-05-04 11:33 | 8.97939 | 95.67319 | 31844 ft | 504 kts | 301° |
| 2026-05-04 11:34 | 9.01540 | 95.61221 | 31846 ft | 504 kts | 301° |
| 2026-05-04 11:34 | 9.05134 | 95.55132 | 31843 ft | 504 kts | 301° |
| 2026-05-04 11:35 | 9.08703 | 95.49082 | 31846 ft | 504 kts | 301° |
| 2026-05-04 11:35 | 9.12299 | 95.42985 | 31846 ft | 504 kts | 301° |
| 2026-05-04 11:36 | 9.15890 | 95.36892 | 31846 ft | 504 kts | 301° |
| 2026-05-04 11:36 | 9.19480 | 95.30799 | 31846 ft | 503 kts | 301° |
| 2026-05-04 11:37 | 9.23067 | 95.24696 | 31845 ft | 504 kts | 301° |
| 2026-05-04 11:37 | 9.26629 | 95.18637 | 31849 ft | 503 kts | 301° |
| 2026-05-04 11:38 | 9.30218 | 95.12534 | 31858 ft | 503 kts | 301° |
| 2026-05-04 11:38 | 9.33806 | 95.06432 | 31848 ft | 503 kts | 301° |
| 2026-05-04 11:39 | 9.37367 | 95.00374 | 31852 ft | 503 kts | 301° |
| 2026-05-04 11:41 | 9.49872 | 94.79072 | 31857 ft | 500 kts | 300° |
| 2026-05-04 11:41 | 9.53422 | 94.73018 | 31853 ft | 500 kts | 300° |
| 2026-05-04 11:42 | 9.56972 | 94.66960 | 31856 ft | 499 kts | 300° |
| 2026-05-04 11:42 | 9.60491 | 94.60953 | 31852 ft | 499 kts | 300° |
| 2026-05-04 11:43 | 9.64038 | 94.54887 | 31855 ft | 500 kts | 300° |
| 2026-05-04 11:43 | 9.67587 | 94.48813 | 31849 ft | 500 kts | 300° |
| 2026-05-04 11:44 | 9.71606 | 94.43127 | 31856 ft | 500 kts | 314° |
| 2026-05-04 11:44 | 9.76819 | 94.38450 | 31850 ft | 500 kts | 321° |
| 2026-05-04 11:45 | 9.82246 | 94.34003 | 31852 ft | 501 kts | 320° |
| 2026-05-04 11:45 | 9.87594 | 94.29465 | 31858 ft | 501 kts | 320° |
| 2026-05-04 11:46 | 9.92865 | 94.24880 | 31855 ft | 502 kts | 319° |
| 2026-05-04 11:46 | 9.98156 | 94.20251 | 31854 ft | 502 kts | 319° |
| 2026-05-04 11:47 | 10.03455 | 94.15618 | 31855 ft | 502 kts | 319° |
| 2026-05-04 11:47 | 10.08748 | 94.10994 | 31852 ft | 501 kts | 319° |
| 2026-05-04 11:48 | 10.14004 | 94.06400 | 31856 ft | 501 kts | 319° |
| 2026-05-04 11:48 | 10.19295 | 94.01775 | 31850 ft | 500 kts | 319° |
| 2026-05-04 11:49 | 10.24579 | 93.97153 | 31853 ft | 500 kts | 319° |
| 2026-05-04 11:49 | 10.29826 | 93.92561 | 31851 ft | 500 kts | 319° |
| 2026-05-04 11:50 | 10.35095 | 93.87947 | 31851 ft | 500 kts | 319° |
| 2026-05-04 11:50 | 10.40368 | 93.83321 | 31853 ft | 499 kts | 319° |
| 2026-05-04 11:51 | 10.45597 | 93.78736 | 31848 ft | 500 kts | 319° |
| 2026-05-04 11:51 | 10.50885 | 93.74100 | 31857 ft | 500 kts | 319° |
| 2026-05-04 11:52 | 10.56121 | 93.69507 | 31849 ft | 500 kts | 319° |
| 2026-05-04 11:52 | 10.61393 | 93.64881 | 31845 ft | 499 kts | 319° |
| 2026-05-04 11:53 | 10.66658 | 93.60258 | 31846 ft | 499 kts | 318° |
| 2026-05-04 11:53 | 10.71885 | 93.55666 | 31845 ft | 499 kts | 318° |
| 2026-05-04 11:55 | 10.92857 | 93.37222 | 31846 ft | 497 kts | 318° |
| 2026-05-04 11:56 | 10.98094 | 93.32610 | 31845 ft | 497 kts | 318° |
| 2026-05-04 11:56 | 11.03286 | 93.28029 | 31850 ft | 497 kts | 318° |
| 2026-05-04 11:57 | 11.08526 | 93.23407 | 31853 ft | 497 kts | 318° |
| 2026-05-04 11:57 | 11.13759 | 93.18793 | 31850 ft | 497 kts | 318° |
| 2026-05-04 11:58 | 11.18952 | 93.14212 | 31851 ft | 497 kts | 318° |
| 2026-05-04 11:58 | 11.24195 | 93.09583 | 31851 ft | 497 kts | 318° |
| 2026-05-04 11:59 | 11.29420 | 93.04969 | 31848 ft | 496 kts | 318° |
| 2026-05-04 11:59 | 11.34609 | 93.00384 | 31847 ft | 497 kts | 318° |
| 2026-05-04 12:00 | 11.39829 | 92.95770 | 31846 ft | 497 kts | 318° |
| 2026-05-04 12:00 | 11.45065 | 92.91139 | 31839 ft | 497 kts | 318° |
| 2026-05-04 12:01 | 11.50285 | 92.86520 | 31832 ft | 497 kts | 318° |
| 2026-05-04 12:02 | 11.68502 | 92.70370 | 31829 ft | 496 kts | 317° |
| 2026-05-04 12:03 | 11.73720 | 92.65740 | 31837 ft | 496 kts | 317° |
| 2026-05-04 12:03 | 11.78897 | 92.61142 | 31842 ft | 495 kts | 317° |
| 2026-05-04 12:04 | 11.83807 | 92.56198 | 31837 ft | 494 kts | 311° |
| 2026-05-04 12:04 | 11.88452 | 92.51024 | 31838 ft | 493 kts | 311° |
| 2026-05-04 12:05 | 11.93054 | 92.45877 | 31846 ft | 493 kts | 311° |
| 2026-05-04 12:05 | 11.97707 | 92.40727 | 31849 ft | 493 kts | 311° |
| 2026-05-04 12:06 | 12.02371 | 92.35585 | 31848 ft | 492 kts | 311° |
| 2026-05-04 12:06 | 12.07004 | 92.30479 | 31846 ft | 492 kts | 311° |
| 2026-05-04 12:07 | 12.11672 | 92.25327 | 31848 ft | 492 kts | 311° |
| 2026-05-04 12:07 | 12.16301 | 92.20215 | 31850 ft | 492 kts | 311° |
| 2026-05-04 12:08 | 12.20947 | 92.15082 | 31844 ft | 492 kts | 311° |
| 2026-05-04 12:08 | 12.25608 | 92.09930 | 31848 ft | 492 kts | 311° |
| 2026-05-04 12:09 | 12.30219 | 92.04829 | 31845 ft | 491 kts | 311° |
| 2026-05-04 12:09 | 12.34862 | 91.99691 | 31841 ft | 491 kts | 311° |
| 2026-05-04 12:10 | 12.39511 | 91.94536 | 31842 ft | 491 kts | 311° |
| 2026-05-04 12:10 | 12.43365 | 91.90259 | 31847 ft | 491 kts | 311° |
| 2026-05-04 12:11 | 12.48765 | 91.84269 | 31845 ft | 491 kts | 311° |
| 2026-05-04 12:11 | 12.53382 | 91.79148 | 31845 ft | 491 kts | 311° |
| 2026-05-04 12:12 | 12.57243 | 91.74863 | 31842 ft | 491 kts | 311° |
| 2026-05-04 12:12 | 12.61885 | 91.69708 | 31852 ft | 491 kts | 311° |
| 2026-05-04 12:14 | 12.80400 | 91.49119 | 31847 ft | 491 kts | 311° |
| 2026-05-04 12:15 | 12.84997 | 91.44000 | 31854 ft | 491 kts | 311° |
| 2026-05-04 12:15 | 12.89624 | 91.38844 | 31844 ft | 490 kts | 311° |
| 2026-05-04 12:16 | 12.94242 | 91.33692 | 31846 ft | 490 kts | 311° |
| 2026-05-04 12:16 | 12.98857 | 91.28534 | 31849 ft | 490 kts | 311° |
| 2026-05-04 12:17 | 13.03443 | 91.23409 | 31850 ft | 490 kts | 311° |
| 2026-05-04 12:17 | 13.08059 | 91.18252 | 31846 ft | 490 kts | 311° |
| 2026-05-04 12:18 | 13.12663 | 91.13108 | 31849 ft | 489 kts | 311° |
| 2026-05-04 12:18 | 13.17264 | 91.07963 | 31856 ft | 489 kts | 311° |
| 2026-05-04 12:19 | 13.21842 | 91.02840 | 31849 ft | 489 kts | 311° |
| 2026-05-04 12:19 | 13.26458 | 90.97672 | 31852 ft | 489 kts | 310° |
| 2026-05-04 12:20 | 13.31038 | 90.92541 | 31846 ft | 489 kts | 310° |
| 2026-05-04 12:20 | 13.35637 | 90.87386 | 31843 ft | 489 kts | 310° |
| 2026-05-04 12:21 | 13.40210 | 90.82256 | 31847 ft | 489 kts | 310° |
| 2026-05-04 12:21 | 13.44808 | 90.77096 | 31849 ft | 489 kts | 310° |
| 2026-05-04 12:22 | 13.49375 | 90.71967 | 31849 ft | 488 kts | 310° |
| 2026-05-04 12:22 | 13.53976 | 90.66786 | 31846 ft | 488 kts | 310° |
| 2026-05-04 12:23 | 13.58557 | 90.61629 | 31849 ft | 488 kts | 310° |
| 2026-05-04 12:23 | 13.63114 | 90.56500 | 31850 ft | 488 kts | 310° |
| 2026-05-04 12:24 | 13.67694 | 90.51343 | 31849 ft | 488 kts | 310° |
| 2026-05-04 12:24 | 13.72281 | 90.46176 | 31854 ft | 488 kts | 310° |
| 2026-05-04 12:25 | 13.76827 | 90.41052 | 31853 ft | 488 kts | 310° |
| 2026-05-04 12:25 | 13.81400 | 90.35895 | 31852 ft | 488 kts | 310° |
| 2026-05-04 12:26 | 13.85978 | 90.30728 | 31854 ft | 488 kts | 310° |
| 2026-05-04 12:26 | 13.90555 | 90.25559 | 31848 ft | 488 kts | 310° |
| 2026-05-04 12:27 | 13.95106 | 90.20415 | 31854 ft | 488 kts | 310° |
| 2026-05-04 12:27 | 13.99687 | 90.15236 | 31853 ft | 488 kts | 310° |
| 2026-05-04 12:28 | 14.04267 | 90.10053 | 31850 ft | 488 kts | 310° |
| 2026-05-04 12:28 | 14.08815 | 90.04896 | 31858 ft | 489 kts | 310° |
| 2026-05-04 12:29 | 14.13390 | 89.99704 | 31849 ft | 489 kts | 310° |
| 2026-05-04 12:29 | 14.17967 | 89.94511 | 31854 ft | 489 kts | 310° |
| 2026-05-04 12:30 | 14.22521 | 89.89346 | 31848 ft | 489 kts | 310° |
| 2026-05-04 12:30 | 14.27102 | 89.84146 | 31847 ft | 489 kts | 310° |
| 2026-05-04 12:31 | 14.31655 | 89.78975 | 31852 ft | 489 kts | 310° |
| 2026-05-04 12:31 | 14.36233 | 89.73771 | 31847 ft | 488 kts | 310° |
| 2026-05-04 12:32 | 14.43090 | 89.65971 | 31852 ft | 488 kts | 310° |
| 2026-05-04 12:33 | 14.47632 | 89.60800 | 31847 ft | 488 kts | 310° |
| 2026-05-04 12:33 | 14.52194 | 89.55603 | 31848 ft | 488 kts | 310° |
| 2026-05-04 12:34 | 14.56729 | 89.50432 | 31846 ft | 488 kts | 310° |
| 2026-05-04 12:34 | 14.61290 | 89.45229 | 31848 ft | 488 kts | 310° |
| 2026-05-04 12:35 | 14.65837 | 89.40027 | 31846 ft | 488 kts | 310° |
| 2026-05-04 12:35 | 14.70386 | 89.34822 | 31850 ft | 488 kts | 310° |
| 2026-05-04 12:36 | 14.74966 | 89.29681 | 31853 ft | 488 kts | 312° |
| 2026-05-04 12:36 | 14.79689 | 89.24633 | 31850 ft | 488 kts | 312° |
| 2026-05-04 12:37 | 14.84442 | 89.19601 | 31849 ft | 488 kts | 312° |
| 2026-05-04 12:37 | 14.89156 | 89.14590 | 31851 ft | 488 kts | 312° |
| 2026-05-04 12:38 | 14.93893 | 89.09540 | 31849 ft | 488 kts | 312° |
| 2026-05-04 12:38 | 14.98588 | 89.04529 | 31854 ft | 488 kts | 312° |
| 2026-05-04 12:39 | 15.03308 | 88.99487 | 31855 ft | 487 kts | 312° |
| 2026-05-04 12:39 | 15.08036 | 88.94435 | 31851 ft | 487 kts | 312° |
| 2026-05-04 12:40 | 15.12754 | 88.89389 | 31854 ft | 487 kts | 312° |
| 2026-05-04 12:40 | 15.17437 | 88.84378 | 31853 ft | 487 kts | 312° |
| 2026-05-04 12:41 | 15.22148 | 88.79333 | 31852 ft | 487 kts | 312° |
| 2026-05-04 12:41 | 15.26860 | 88.74283 | 31850 ft | 487 kts | 312° |
| 2026-05-04 12:42 | 15.31578 | 88.69222 | 31849 ft | 487 kts | 312° |
| 2026-05-04 12:42 | 15.36256 | 88.64190 | 31848 ft | 487 kts | 312° |
| 2026-05-04 12:43 | 15.40941 | 88.59153 | 31852 ft | 487 kts | 312° |
| 2026-05-04 12:43 | 15.45650 | 88.54092 | 31855 ft | 487 kts | 312° |
| 2026-05-04 12:44 | 15.50364 | 88.49024 | 31852 ft | 487 kts | 312° |
| 2026-05-04 12:44 | 15.55036 | 88.43996 | 31848 ft | 487 kts | 311° |
| 2026-05-04 12:45 | 15.59740 | 88.38930 | 31846 ft | 487 kts | 311° |
| 2026-05-04 12:45 | 15.64454 | 88.33851 | 31848 ft | 487 kts | 311° |
| 2026-05-04 12:46 | 15.69133 | 88.28805 | 31851 ft | 487 kts | 311° |
| 2026-05-04 12:46 | 15.73835 | 88.23730 | 31850 ft | 487 kts | 311° |
| 2026-05-04 12:47 | 15.78531 | 88.18660 | 31844 ft | 486 kts | 311° |
| 2026-05-04 12:47 | 15.83200 | 88.13614 | 31850 ft | 486 kts | 311° |
| 2026-05-04 12:48 | 15.87887 | 88.08545 | 31844 ft | 486 kts | 311° |
| 2026-05-04 12:48 | 15.92572 | 88.03465 | 31846 ft | 486 kts | 311° |
| 2026-05-04 12:49 | 15.97257 | 87.98382 | 31847 ft | 486 kts | 311° |
| 2026-05-04 12:49 | 16.01917 | 87.93329 | 31839 ft | 486 kts | 311° |
| 2026-05-04 12:50 | 16.06615 | 87.88234 | 31845 ft | 486 kts | 311° |
| 2026-05-04 12:50 | 16.11296 | 87.83153 | 31845 ft | 486 kts | 311° |
| 2026-05-04 12:51 | 16.15949 | 87.78100 | 31842 ft | 486 kts | 311° |
| 2026-05-04 12:51 | 16.20631 | 87.73010 | 31842 ft | 486 kts | 311° |
| 2026-05-04 12:52 | 16.25317 | 87.67913 | 31842 ft | 486 kts | 311° |
| 2026-05-04 12:52 | 16.30001 | 87.62814 | 31840 ft | 486 kts | 311° |
| 2026-05-04 12:53 | 16.34650 | 87.57749 | 31841 ft | 486 kts | 311° |
| 2026-05-04 12:53 | 16.39325 | 87.52653 | 31845 ft | 486 kts | 311° |
| 2026-05-04 12:54 | 16.43999 | 87.47553 | 31841 ft | 486 kts | 311° |
| 2026-05-04 12:54 | 16.48653 | 87.42466 | 31841 ft | 486 kts | 311° |
| 2026-05-04 12:55 | 16.53321 | 87.37354 | 31838 ft | 486 kts | 311° |
| 2026-05-04 12:55 | 16.57975 | 87.32261 | 31841 ft | 486 kts | 311° |
| 2026-05-04 12:56 | 16.62663 | 87.27130 | 31837 ft | 486 kts | 311° |
| 2026-05-04 12:56 | 16.67311 | 87.22041 | 31841 ft | 486 kts | 311° |
| 2026-05-04 12:57 | 16.71984 | 87.16920 | 31839 ft | 487 kts | 311° |
| 2026-05-04 12:57 | 16.76690 | 87.11826 | 31841 ft | 487 kts | 312° |
| 2026-05-04 12:58 | 16.81408 | 87.06787 | 31841 ft | 487 kts | 312° |
| 2026-05-04 12:58 | 16.86147 | 87.01729 | 31837 ft | 487 kts | 312° |
| 2026-05-04 12:59 | 16.90090 | 86.97513 | 31832 ft | 487 kts | 312° |
| 2026-05-04 12:59 | 16.94830 | 86.92440 | 31836 ft | 487 kts | 312° |
| 2026-05-04 13:00 | 16.99568 | 86.87363 | 31837 ft | 487 kts | 312° |
| 2026-05-04 13:00 | 17.04297 | 86.82293 | 31837 ft | 487 kts | 312° |
| 2026-05-04 13:01 | 17.09007 | 86.77239 | 31838 ft | 488 kts | 312° |
| 2026-05-04 13:01 | 17.13739 | 86.72158 | 31835 ft | 488 kts | 312° |
| 2026-05-04 13:02 | 17.18480 | 86.67062 | 31834 ft | 488 kts | 312° |
| 2026-05-04 13:02 | 17.23221 | 86.61964 | 31830 ft | 488 kts | 311° |
| 2026-05-04 13:03 | 17.27925 | 86.56901 | 31834 ft | 488 kts | 311° |
| 2026-05-04 13:03 | 17.32660 | 86.51797 | 31830 ft | 488 kts | 311° |
| 2026-05-04 13:04 | 17.37354 | 86.46722 | 31832 ft | 488 kts | 311° |
| 2026-05-04 13:04 | 17.42097 | 86.41599 | 31829 ft | 488 kts | 311° |
| 2026-05-04 13:05 | 17.46830 | 86.36488 | 31827 ft | 488 kts | 311° |
| 2026-05-04 13:05 | 17.51542 | 86.31397 | 31831 ft | 488 kts | 311° |
| 2026-05-04 13:06 | 17.56274 | 86.26280 | 31829 ft | 488 kts | 311° |
| 2026-05-04 13:06 | 17.61007 | 86.21156 | 31830 ft | 488 kts | 311° |
| 2026-05-04 13:07 | 17.65705 | 86.16068 | 31828 ft | 488 kts | 311° |
| 2026-05-04 13:07 | 17.70439 | 86.10936 | 31828 ft | 488 kts | 311° |
| 2026-05-04 13:08 | 17.75168 | 86.05804 | 31829 ft | 488 kts | 311° |
| 2026-05-04 13:08 | 17.79878 | 86.00690 | 31825 ft | 488 kts | 311° |
| 2026-05-04 13:09 | 17.84604 | 85.95554 | 31827 ft | 488 kts | 311° |
| 2026-05-04 13:09 | 17.89287 | 85.90460 | 31826 ft | 488 kts | 311° |
| 2026-05-04 13:10 | 17.93997 | 85.85320 | 31827 ft | 488 kts | 311° |
| 2026-05-04 13:10 | 17.98710 | 85.80176 | 31825 ft | 488 kts | 311° |
| 2026-05-04 13:11 | 18.03420 | 85.75040 | 31825 ft | 488 kts | 311° |
| 2026-05-04 13:11 | 18.08103 | 85.69929 | 31825 ft | 487 kts | 311° |
| 2026-05-04 13:12 | 18.12806 | 85.64795 | 31824 ft | 487 kts | 311° |
| 2026-05-04 13:12 | 18.17510 | 85.59652 | 31822 ft | 487 kts | 311° |
| 2026-05-04 13:13 | 18.22179 | 85.54545 | 31822 ft | 486 kts | 311° |
| 2026-05-04 13:13 | 18.26882 | 85.49396 | 31822 ft | 486 kts | 310° |
| 2026-05-04 13:14 | 18.31551 | 85.44280 | 31821 ft | 486 kts | 310° |
| 2026-05-04 13:14 | 18.36239 | 85.39139 | 31814 ft | 486 kts | 310° |
| 2026-05-04 13:15 | 18.40930 | 85.33990 | 31818 ft | 486 kts | 310° |
| 2026-05-04 13:15 | 18.45594 | 85.28866 | 31815 ft | 486 kts | 310° |
| 2026-05-04 13:16 | 18.50272 | 85.23713 | 31812 ft | 486 kts | 310° |
| 2026-05-04 13:16 | 18.54924 | 85.18581 | 31814 ft | 486 kts | 310° |
| 2026-05-04 13:17 | 18.59616 | 85.13411 | 31810 ft | 486 kts | 310° |
| 2026-05-04 13:17 | 18.64297 | 85.08252 | 31808 ft | 486 kts | 310° |
| 2026-05-04 13:18 | 18.68975 | 85.03091 | 31806 ft | 486 kts | 310° |
| 2026-05-04 13:18 | 18.73631 | 84.97953 | 31806 ft | 486 kts | 310° |
| 2026-05-04 13:19 | 18.78323 | 84.92792 | 31807 ft | 486 kts | 310° |
| 2026-05-04 13:19 | 18.83016 | 84.87639 | 31809 ft | 486 kts | 310° |
| 2026-05-04 13:20 | 18.87662 | 84.82505 | 31809 ft | 486 kts | 310° |
| 2026-05-04 13:20 | 18.92341 | 84.77318 | 31810 ft | 486 kts | 310° |
| 2026-05-04 13:21 | 18.96995 | 84.72155 | 31811 ft | 486 kts | 310° |
| 2026-05-04 13:21 | 19.01665 | 84.66970 | 31812 ft | 486 kts | 310° |
| 2026-05-04 13:22 | 19.06301 | 84.61821 | 31819 ft | 486 kts | 310° |
| 2026-05-04 13:22 | 19.10961 | 84.56641 | 31821 ft | 485 kts | 310° |
| 2026-05-04 13:23 | 19.15611 | 84.51465 | 31822 ft | 485 kts | 310° |
| 2026-05-04 13:23 | 19.20258 | 84.46290 | 31829 ft | 485 kts | 310° |
| 2026-05-04 13:24 | 19.24903 | 84.41112 | 31832 ft | 485 kts | 310° |
| 2026-05-04 13:24 | 19.29540 | 84.35938 | 31835 ft | 484 kts | 310° |
| 2026-05-04 13:25 | 19.36487 | 84.28179 | 31833 ft | 484 kts | 310° |
| 2026-05-04 13:25 | 19.41116 | 84.23000 | 31827 ft | 484 kts | 310° |
| 2026-05-04 13:26 | 19.45796 | 84.17865 | 31828 ft | 484 kts | 311° |
| 2026-05-04 13:26 | 19.50527 | 84.12781 | 31834 ft | 484 kts | 311° |
| 2026-05-04 13:27 | 19.55260 | 84.07704 | 31838 ft | 484 kts | 311° |
| 2026-05-04 13:27 | 19.59991 | 84.02615 | 31845 ft | 484 kts | 311° |
| 2026-05-04 13:28 | 19.64714 | 83.97525 | 31845 ft | 484 kts | 311° |
| 2026-05-04 13:28 | 19.69413 | 83.92456 | 31835 ft | 484 kts | 311° |
| 2026-05-04 13:29 | 19.74164 | 83.87327 | 31834 ft | 484 kts | 311° |
| 2026-05-04 13:29 | 19.78851 | 83.82263 | 31832 ft | 484 kts | 311° |
| 2026-05-04 13:30 | 19.83564 | 83.77166 | 31830 ft | 484 kts | 311° |
| 2026-05-04 13:30 | 19.88275 | 83.72065 | 31827 ft | 483 kts | 311° |
| 2026-05-04 13:31 | 19.92983 | 83.66965 | 31819 ft | 483 kts | 311° |
| 2026-05-04 13:31 | 19.97684 | 83.61866 | 31813 ft | 483 kts | 311° |
| 2026-05-04 13:32 | 20.02383 | 83.56759 | 31807 ft | 483 kts | 310° |
| 2026-05-04 13:32 | 20.07069 | 83.51653 | 31804 ft | 482 kts | 310° |
| 2026-05-04 13:33 | 20.11761 | 83.46545 | 31794 ft | 483 kts | 310° |
| 2026-05-04 13:33 | 20.16455 | 83.41435 | 31790 ft | 483 kts | 310° |
| 2026-05-04 13:34 | 20.21150 | 83.36321 | 31783 ft | 483 kts | 310° |
| 2026-05-04 13:34 | 20.25850 | 83.31196 | 31783 ft | 482 kts | 310° |
| 2026-05-04 13:35 | 20.32847 | 83.23557 | 31778 ft | 482 kts | 310° |
| 2026-05-04 13:36 | 20.37544 | 83.18424 | 31780 ft | 482 kts | 310° |
| 2026-05-04 13:36 | 20.42239 | 83.13287 | 31782 ft | 483 kts | 310° |
| 2026-05-04 13:37 | 20.46922 | 83.08159 | 31780 ft | 483 kts | 310° |
| 2026-05-04 13:37 | 20.51589 | 83.03044 | 31785 ft | 483 kts | 310° |
| 2026-05-04 13:38 | 20.56258 | 82.97922 | 31782 ft | 483 kts | 310° |
| 2026-05-04 13:38 | 20.60933 | 82.92772 | 31786 ft | 483 kts | 310° |
| 2026-05-04 13:39 | 20.65609 | 82.87604 | 31786 ft | 483 kts | 310° |
| 2026-05-04 13:39 | 20.70254 | 82.82474 | 31791 ft | 483 kts | 310° |
| 2026-05-04 13:40 | 20.74937 | 82.77302 | 31782 ft | 483 kts | 310° |
| 2026-05-04 13:40 | 20.79589 | 82.72161 | 31778 ft | 483 kts | 310° |
| 2026-05-04 13:41 | 20.84269 | 82.66983 | 31778 ft | 483 kts | 310° |
| 2026-05-04 13:41 | 20.88914 | 82.61839 | 31778 ft | 483 kts | 310° |
| 2026-05-04 13:42 | 20.95925 | 82.54099 | 31774 ft | 483 kts | 310° |
| 2026-05-04 13:42 | 21.00613 | 82.48936 | 31776 ft | 482 kts | 310° |
| 2026-05-04 13:43 | 21.05263 | 82.43812 | 31773 ft | 482 kts | 310° |
| 2026-05-04 13:43 | 21.09945 | 82.38647 | 31772 ft | 482 kts | 309° |
| 2026-05-04 13:44 | 21.14633 | 82.33469 | 31771 ft | 482 kts | 309° |
| 2026-05-04 13:44 | 21.19284 | 82.28328 | 31765 ft | 482 kts | 309° |
| 2026-05-04 13:45 | 21.23933 | 82.23183 | 31766 ft | 482 kts | 309° |
| 2026-05-04 13:45 | 21.28607 | 82.18007 | 31767 ft | 482 kts | 309° |
| 2026-05-04 13:46 | 21.33283 | 82.12823 | 31766 ft | 482 kts | 309° |
| 2026-05-04 13:46 | 21.37929 | 82.07666 | 31765 ft | 483 kts | 309° |
| 2026-05-04 13:47 | 21.42600 | 82.02477 | 31767 ft | 483 kts | 309° |
| 2026-05-04 13:47 | 21.47281 | 81.97335 | 31765 ft | 484 kts | 310° |
| 2026-05-04 13:48 | 21.52054 | 81.92209 | 31764 ft | 484 kts | 310° |
| 2026-05-04 13:48 | 21.56031 | 81.87955 | 31762 ft | 484 kts | 310° |
| 2026-05-04 13:49 | 21.60816 | 81.82828 | 31761 ft | 484 kts | 310° |
| 2026-05-04 13:49 | 21.65568 | 81.77726 | 31763 ft | 484 kts | 310° |
| 2026-05-04 13:50 | 21.70347 | 81.72588 | 31757 ft | 484 kts | 310° |
| 2026-05-04 13:50 | 21.75093 | 81.67480 | 31761 ft | 484 kts | 310° |
| 2026-05-04 13:51 | 21.79840 | 81.62327 | 31764 ft | 484 kts | 309° |
| 2026-05-04 13:51 | 21.84504 | 81.57154 | 31765 ft | 483 kts | 309° |
| 2026-05-04 13:52 | 21.91534 | 81.49328 | 31770 ft | 484 kts | 309° |
| 2026-05-04 13:53 | 21.96191 | 81.44087 | 31765 ft | 483 kts | 308° |
| 2026-05-04 13:53 | 22.00798 | 81.38858 | 31765 ft | 484 kts | 308° |
| 2026-05-04 13:54 | 22.07764 | 81.30945 | 31787 ft | 484 kts | 308° |
| 2026-05-04 13:55 | 22.14730 | 81.23089 | 31792 ft | 484 kts | 308° |
| 2026-05-04 13:55 | 22.21752 | 81.15215 | 31803 ft | 484 kts | 308° |
| 2026-05-04 13:56 | 22.26412 | 81.09981 | 31797 ft | 484 kts | 308° |
| 2026-05-04 13:57 | 22.33409 | 81.02109 | 31799 ft | 484 kts | 308° |
| 2026-05-04 13:58 | 22.42722 | 80.91612 | 31809 ft | 484 kts | 308° |
| 2026-05-04 13:58 | 22.49731 | 80.83698 | 31802 ft | 484 kts | 308° |
| 2026-05-04 13:59 | 22.54369 | 80.78455 | 31802 ft | 485 kts | 308° |
| 2026-05-04 14:00 | 22.61343 | 80.70560 | 31795 ft | 485 kts | 308° |
| 2026-05-04 14:00 | 22.68329 | 80.62634 | 31796 ft | 484 kts | 308° |
| 2026-05-04 14:01 | 22.72968 | 80.57347 | 31796 ft | 484 kts | 308° |
| 2026-05-04 14:02 | 22.79940 | 80.49412 | 31791 ft | 484 kts | 308° |
| 2026-05-04 14:02 | 22.84583 | 80.44128 | 31793 ft | 484 kts | 308° |
| 2026-05-04 14:03 | 22.89224 | 80.38839 | 31793 ft | 484 kts | 308° |
| 2026-05-04 14:03 | 22.93867 | 80.33542 | 31792 ft | 483 kts | 308° |
| 2026-05-04 14:04 | 23.00786 | 80.25639 | 31792 ft | 483 kts | 308° |
| 2026-05-04 14:04 | 23.05419 | 80.20339 | 31781 ft | 484 kts | 308° |
| 2026-05-04 14:05 | 23.12358 | 80.12392 | 31777 ft | 483 kts | 308° |
| 2026-05-04 14:06 | 23.16979 | 80.07093 | 31776 ft | 483 kts | 308° |
| 2026-05-04 14:06 | 23.21417 | 80.01641 | 31777 ft | 476 kts | 300° |
| 2026-05-04 14:07 | 23.24919 | 79.95584 | 31778 ft | 471 kts | 295° |
| 2026-05-04 14:07 | 23.28142 | 79.89435 | 31778 ft | 471 kts | 295° |
| 2026-05-04 14:08 | 23.31429 | 79.83275 | 31779 ft | 471 kts | 295° |
| 2026-05-04 14:08 | 23.34763 | 79.77138 | 31775 ft | 471 kts | 296° |
| 2026-05-04 14:09 | 23.39778 | 79.67942 | 31778 ft | 470 kts | 296° |
| 2026-05-04 14:10 | 23.44781 | 79.58745 | 31784 ft | 470 kts | 296° |
| 2026-05-04 14:10 | 23.48110 | 79.52614 | 31782 ft | 470 kts | 296° |
| 2026-05-04 14:11 | 23.51408 | 79.46532 | 31784 ft | 469 kts | 296° |
| 2026-05-04 14:11 | 23.56384 | 79.37343 | 31784 ft | 469 kts | 296° |
| 2026-05-04 14:12 | 23.59698 | 79.31213 | 31786 ft | 469 kts | 296° |
| 2026-05-04 14:13 | 23.64652 | 79.22020 | 31787 ft | 469 kts | 296° |
| 2026-05-04 14:13 | 23.67949 | 79.15873 | 31790 ft | 469 kts | 296° |
| 2026-05-04 14:14 | 23.71244 | 79.09740 | 31790 ft | 469 kts | 296° |
| 2026-05-04 14:14 | 23.76176 | 79.00562 | 31786 ft | 469 kts | 296° |
| 2026-05-04 14:15 | 23.82780 | 78.88247 | 31784 ft | 470 kts | 296° |
| 2026-05-04 14:16 | 23.87732 | 78.78993 | 31784 ft | 471 kts | 296° |
| 2026-05-04 14:17 | 23.92686 | 78.69718 | 31784 ft | 471 kts | 296° |
| 2026-05-04 14:18 | 23.97646 | 78.60413 | 31770 ft | 472 kts | 296° |
| 2026-05-04 14:19 | 24.04303 | 78.48054 | 31771 ft | 473 kts | 297° |
| 2026-05-04 14:19 | 24.07697 | 78.41874 | 31770 ft | 474 kts | 297° |
| 2026-05-04 14:20 | 24.11091 | 78.35695 | 31775 ft | 474 kts | 297° |
| 2026-05-04 14:20 | 24.14487 | 78.29498 | 31771 ft | 474 kts | 297° |
| 2026-05-04 14:21 | 24.19565 | 78.20215 | 31776 ft | 474 kts | 297° |
| 2026-05-04 14:21 | 24.22947 | 78.14022 | 31773 ft | 473 kts | 297° |
| 2026-05-04 14:22 | 24.26328 | 78.07823 | 31774 ft | 473 kts | 297° |
| 2026-05-04 14:22 | 24.29682 | 78.01666 | 31781 ft | 472 kts | 297° |
| 2026-05-04 14:23 | 24.34726 | 77.92390 | 31785 ft | 471 kts | 297° |
| 2026-05-04 14:24 | 24.38087 | 77.86199 | 31785 ft | 471 kts | 297° |
| 2026-05-04 14:24 | 24.41417 | 77.80058 | 31791 ft | 471 kts | 297° |
| 2026-05-04 14:25 | 24.44760 | 77.73869 | 31795 ft | 470 kts | 297° |
| 2026-05-04 14:25 | 24.49741 | 77.64618 | 31798 ft | 470 kts | 297° |
| 2026-05-04 14:26 | 24.53090 | 77.58411 | 31802 ft | 470 kts | 297° |
| 2026-05-04 14:26 | 24.56410 | 77.52253 | 31803 ft | 471 kts | 297° |
| 2026-05-04 14:27 | 24.59748 | 77.46055 | 31800 ft | 471 kts | 298° |
| 2026-05-04 14:27 | 24.63076 | 77.39866 | 31802 ft | 471 kts | 297° |
| 2026-05-04 14:28 | 24.66408 | 77.33662 | 31807 ft | 471 kts | 297° |
| 2026-05-04 14:28 | 24.69749 | 77.27435 | 31937 ft | 472 kts | 298° |
| 2026-05-04 14:29 | 24.73100 | 77.21240 | 32702 ft | 469 kts | 298° |
| 2026-05-04 14:29 | 24.76420 | 77.15137 | 33471 ft | 465 kts | 298° |
| 2026-05-04 14:30 | 24.78083 | 77.12080 | 33728 ft | 464 kts | 298° |
| 2026-05-04 14:30 | 24.79744 | 77.09025 | 33776 ft | 463 kts | 298° |
| 2026-05-04 14:31 | 24.84677 | 76.99935 | 33792 ft | 463 kts | 298° |
| 2026-05-04 14:32 | 24.91278 | 76.87742 | 33784 ft | 464 kts | 298° |
| 2026-05-04 14:32 | 24.94591 | 76.81611 | 33784 ft | 465 kts | 298° |
| 2026-05-04 14:33 | 24.97966 | 76.75547 | 33779 ft | 468 kts | 301° |
| 2026-05-04 14:33 | 25.01816 | 76.69751 | 33773 ft | 470 kts | 304° |
| 2026-05-04 14:34 | 25.05830 | 76.64024 | 33775 ft | 470 kts | 304° |
| 2026-05-04 14:34 | 25.09792 | 76.58335 | 33770 ft | 470 kts | 304° |
| 2026-05-04 14:35 | 25.13763 | 76.52578 | 33771 ft | 469 kts | 304° |
| 2026-05-04 14:35 | 25.17691 | 76.46861 | 33768 ft | 469 kts | 304° |
| 2026-05-04 14:36 | 25.21628 | 76.41124 | 33769 ft | 468 kts | 304° |
| 2026-05-04 14:36 | 25.24892 | 76.36363 | 33768 ft | 467 kts | 304° |
| 2026-05-04 14:37 | 25.29450 | 76.29709 | 33769 ft | 466 kts | 304° |
| 2026-05-04 14:37 | 25.32725 | 76.24920 | 33768 ft | 466 kts | 303° |
| 2026-05-04 14:38 | 25.36635 | 76.19198 | 33767 ft | 465 kts | 303° |
| 2026-05-04 14:38 | 25.40511 | 76.13518 | 33766 ft | 465 kts | 303° |
| 2026-05-04 14:39 | 25.44419 | 76.07785 | 33768 ft | 466 kts | 303° |
| 2026-05-04 14:39 | 25.48324 | 76.02043 | 33766 ft | 467 kts | 303° |
| 2026-05-04 14:40 | 25.54177 | 75.93395 | 33767 ft | 468 kts | 303° |
| 2026-05-04 14:40 | 25.58087 | 75.87629 | 33765 ft | 469 kts | 303° |
| 2026-05-04 14:41 | 25.61975 | 75.81892 | 33764 ft | 469 kts | 303° |
| 2026-05-04 14:42 | 25.69810 | 75.70314 | 33765 ft | 469 kts | 303° |
| 2026-05-04 14:42 | 25.73725 | 75.64518 | 33762 ft | 469 kts | 303° |
| 2026-05-04 14:43 | 25.77628 | 75.58731 | 33763 ft | 468 kts | 303° |
| 2026-05-04 14:43 | 25.81528 | 75.52942 | 33761 ft | 467 kts | 303° |
| 2026-05-04 14:44 | 25.85413 | 75.47167 | 33762 ft | 466 kts | 303° |
| 2026-05-04 14:44 | 25.89262 | 75.41440 | 33763 ft | 465 kts | 303° |
| 2026-05-04 14:45 | 25.93132 | 75.35674 | 33759 ft | 465 kts | 303° |
| 2026-05-04 14:45 | 25.96854 | 75.29802 | 33763 ft | 464 kts | 301° |
| 2026-05-04 14:46 | 26.00430 | 75.23839 | 33761 ft | 463 kts | 301° |
| 2026-05-04 14:46 | 26.04001 | 75.17871 | 33764 ft | 463 kts | 301° |
| 2026-05-04 14:47 | 26.07578 | 75.11918 | 33765 ft | 462 kts | 301° |
| 2026-05-04 14:47 | 26.11129 | 75.06015 | 33772 ft | 462 kts | 301° |
| 2026-05-04 14:48 | 26.14699 | 75.00074 | 33773 ft | 461 kts | 301° |
| 2026-05-04 14:48 | 26.18246 | 74.94151 | 33773 ft | 459 kts | 300° |
| 2026-05-04 14:49 | 26.21483 | 74.88029 | 33780 ft | 457 kts | 296° |
| 2026-05-04 14:49 | 26.24514 | 74.81805 | 33778 ft | 456 kts | 296° |
| 2026-05-04 14:50 | 26.27537 | 74.75590 | 33775 ft | 456 kts | 296° |
| 2026-05-04 14:50 | 26.30557 | 74.69427 | 33777 ft | 455 kts | 296° |
| 2026-05-04 14:51 | 26.33599 | 74.63235 | 33786 ft | 455 kts | 296° |
| 2026-05-04 14:51 | 26.36636 | 74.57045 | 33782 ft | 454 kts | 296° |
| 2026-05-04 14:52 | 26.39665 | 74.50862 | 33777 ft | 454 kts | 296° |
| 2026-05-04 14:52 | 26.42693 | 74.44673 | 33775 ft | 454 kts | 296° |
| 2026-05-04 14:53 | 26.45693 | 74.38531 | 33766 ft | 453 kts | 296° |
| 2026-05-04 14:53 | 26.48726 | 74.32312 | 33759 ft | 453 kts | 296° |
| 2026-05-04 14:54 | 26.51715 | 74.26176 | 33751 ft | 452 kts | 296° |
| 2026-05-04 14:54 | 26.54719 | 74.20001 | 33755 ft | 453 kts | 296° |
| 2026-05-04 14:55 | 26.57752 | 74.13819 | 33771 ft | 453 kts | 296° |
| 2026-05-04 14:55 | 26.60803 | 74.07659 | 33748 ft | 453 kts | 297° |
| 2026-05-04 14:56 | 26.63865 | 74.01488 | 33756 ft | 454 kts | 297° |
| 2026-05-04 14:56 | 26.66923 | 73.95319 | 33758 ft | 454 kts | 297° |
| 2026-05-04 14:57 | 26.69983 | 73.89134 | 33761 ft | 454 kts | 297° |
| 2026-05-04 14:57 | 26.73040 | 73.82943 | 33768 ft | 455 kts | 297° |
| 2026-05-04 14:58 | 26.76085 | 73.76770 | 33761 ft | 456 kts | 297° |
| 2026-05-04 14:58 | 26.79147 | 73.70553 | 33762 ft | 457 kts | 297° |
| 2026-05-04 14:59 | 26.82217 | 73.64310 | 33761 ft | 458 kts | 297° |
| 2026-05-04 15:00 | 26.86837 | 73.54898 | 33751 ft | 461 kts | 297° |
| 2026-05-04 15:00 | 26.89928 | 73.48590 | 33756 ft | 463 kts | 297° |
| 2026-05-04 15:01 | 26.94569 | 73.39103 | 33752 ft | 462 kts | 297° |
| 2026-05-04 15:01 | 26.97620 | 73.32776 | 33747 ft | 461 kts | 297° |
| 2026-05-04 15:02 | 27.00641 | 73.26454 | 33745 ft | 459 kts | 297° |
| 2026-05-04 15:02 | 27.03641 | 73.20186 | 33738 ft | 458 kts | 297° |
| 2026-05-04 15:03 | 27.06651 | 73.13899 | 33737 ft | 456 kts | 297° |
| 2026-05-04 15:03 | 27.09640 | 73.07650 | 33733 ft | 454 kts | 297° |
| 2026-05-04 15:04 | 27.12622 | 73.01406 | 33731 ft | 453 kts | 297° |
| 2026-05-04 15:04 | 27.15593 | 72.95175 | 33724 ft | 452 kts | 297° |
| 2026-05-04 15:05 | 27.18554 | 72.88958 | 33716 ft | 451 kts | 297° |
| 2026-05-04 15:05 | 27.21487 | 72.82790 | 33719 ft | 450 kts | 297° |
| 2026-05-04 15:06 | 27.24431 | 72.76588 | 33713 ft | 449 kts | 298° |
| 2026-05-04 15:07 | 27.28822 | 72.67325 | 33711 ft | 447 kts | 298° |
| 2026-05-04 15:07 | 27.31738 | 72.61159 | 33705 ft | 446 kts | 298° |
| 2026-05-04 15:08 | 27.34653 | 72.54987 | 33700 ft | 445 kts | 298° |
| 2026-05-04 15:08 | 27.37522 | 72.48864 | 33695 ft | 445 kts | 298° |
| 2026-05-04 15:09 | 27.40409 | 72.42707 | 33692 ft | 444 kts | 298° |
| 2026-05-04 15:09 | 27.43294 | 72.36567 | 33689 ft | 444 kts | 298° |
| 2026-05-04 15:10 | 27.47622 | 72.27347 | 33686 ft | 443 kts | 298° |
| 2026-05-04 15:11 | 27.51938 | 72.18134 | 33685 ft | 443 kts | 298° |
| 2026-05-04 15:11 | 27.54805 | 72.12002 | 33680 ft | 442 kts | 298° |
| 2026-05-04 15:12 | 27.57655 | 72.05898 | 33678 ft | 442 kts | 298° |
| 2026-05-04 15:12 | 27.60515 | 71.99764 | 33680 ft | 442 kts | 298° |
| 2026-05-04 15:13 | 27.63373 | 71.93624 | 33677 ft | 442 kts | 298° |
| 2026-05-04 15:13 | 27.66231 | 71.87477 | 33678 ft | 441 kts | 298° |
| 2026-05-04 15:14 | 27.69074 | 71.81351 | 33674 ft | 441 kts | 298° |
| 2026-05-04 15:14 | 27.71892 | 71.75271 | 33676 ft | 440 kts | 298° |
| 2026-05-04 15:15 | 27.74719 | 71.69142 | 33677 ft | 440 kts | 298° |
| 2026-05-04 15:15 | 27.77531 | 71.63016 | 33678 ft | 439 kts | 298° |
| 2026-05-04 15:16 | 27.81751 | 71.53849 | 33661 ft | 438 kts | 298° |
| 2026-05-04 15:17 | 27.85964 | 71.44695 | 33666 ft | 437 kts | 298° |
| 2026-05-04 15:17 | 27.90022 | 71.35497 | 33674 ft | 437 kts | 297° |
| 2026-05-04 15:18 | 27.92682 | 71.29323 | 33675 ft | 436 kts | 297° |
| 2026-05-04 15:19 | 27.96675 | 71.20068 | 33676 ft | 436 kts | 297° |
| 2026-05-04 15:19 | 28.00661 | 71.10825 | 33674 ft | 435 kts | 297° |
| 2026-05-04 15:20 | 28.03311 | 71.04670 | 33678 ft | 435 kts | 297° |
| 2026-05-04 15:20 | 28.05956 | 70.98516 | 33669 ft | 435 kts | 297° |
| 2026-05-04 15:21 | 28.08596 | 70.92362 | 33674 ft | 434 kts | 297° |
| 2026-05-04 15:22 | 28.12551 | 70.83129 | 33671 ft | 434 kts | 297° |
| 2026-05-04 15:22 | 28.16482 | 70.73928 | 33665 ft | 434 kts | 297° |
| 2026-05-04 15:23 | 28.19108 | 70.67771 | 33667 ft | 434 kts | 297° |
| 2026-05-04 15:23 | 28.21736 | 70.61600 | 33667 ft | 434 kts | 297° |
| 2026-05-04 15:24 | 28.26950 | 70.49257 | 33672 ft | 434 kts | 296° |
| 2026-05-04 15:25 | 28.29118 | 70.44127 | 33669 ft | 434 kts | 296° |
| 2026-05-04 15:26 | 28.33949 | 70.34183 | 33669 ft | 432 kts | 307° |
| 2026-05-04 15:26 | 28.39829 | 70.27987 | 33671 ft | 435 kts | 325° |
| 2026-05-04 15:27 | 28.48231 | 70.23987 | 33681 ft | 443 kts | 341° |
| 2026-05-04 15:28 | 28.57237 | 70.21568 | 33679 ft | 444 kts | 342° |
| 2026-05-04 15:29 | 28.66197 | 70.19098 | 33680 ft | 443 kts | 341° |
| 2026-05-04 15:30 | 28.87180 | 70.13124 | 33693 ft | 444 kts | 341° |
| 2026-05-04 15:31 | 28.96186 | 70.10553 | 33704 ft | 445 kts | 341° |
| 2026-05-04 15:32 | 29.11171 | 70.06264 | 33713 ft | 446 kts | 341° |
| 2026-05-04 15:34 | 29.26211 | 70.01947 | 33731 ft | 445 kts | 341° |
| 2026-05-04 15:34 | 29.35232 | 69.99343 | 33741 ft | 445 kts | 341° |
| 2026-05-04 15:35 | 29.44237 | 69.96744 | 33755 ft | 444 kts | 342° |
| 2026-05-04 15:36 | 29.53191 | 69.94158 | 33765 ft | 444 kts | 342° |
| 2026-05-04 15:36 | 29.59175 | 69.92427 | 33770 ft | 443 kts | 342° |
| 2026-05-04 15:37 | 29.65153 | 69.90696 | 33783 ft | 443 kts | 342° |
| 2026-05-04 15:37 | 29.71134 | 69.88961 | 33787 ft | 443 kts | 342° |
| 2026-05-04 15:38 | 29.77117 | 69.87224 | 33799 ft | 443 kts | 342° |
| 2026-05-04 15:38 | 29.83104 | 69.85484 | 33804 ft | 443 kts | 342° |
| 2026-05-04 15:39 | 29.89083 | 69.83744 | 33822 ft | 444 kts | 342° |
| 2026-05-04 15:40 | 29.98069 | 69.81125 | 33823 ft | 444 kts | 342° |
| 2026-05-04 15:40 | 30.04064 | 69.79374 | 33830 ft | 445 kts | 342° |
| 2026-05-04 15:41 | 30.10064 | 69.77619 | 33832 ft | 445 kts | 342° |
| 2026-05-04 15:41 | 30.16070 | 69.75854 | 33837 ft | 446 kts | 342° |
| 2026-05-04 15:42 | 30.22097 | 69.74085 | 33847 ft | 446 kts | 342° |
| 2026-05-04 15:42 | 30.28113 | 69.72441 | 33841 ft | 448 kts | 344° |
| 2026-05-04 15:43 | 30.34220 | 69.70941 | 33837 ft | 449 kts | 344° |
| 2026-05-04 15:43 | 30.40332 | 69.69455 | 33846 ft | 450 kts | 344° |
| 2026-05-04 15:44 | 30.46468 | 69.67950 | 33841 ft | 451 kts | 344° |
| 2026-05-04 15:44 | 30.52610 | 69.66436 | 33851 ft | 452 kts | 344° |
| 2026-05-04 15:45 | 30.58758 | 69.64916 | 33853 ft | 452 kts | 344° |
| 2026-05-04 15:45 | 30.64916 | 69.63393 | 33858 ft | 452 kts | 344° |
| 2026-05-04 15:46 | 30.71071 | 69.61868 | 33858 ft | 452 kts | 345° |
| 2026-05-04 15:46 | 30.77221 | 69.60343 | 33865 ft | 451 kts | 344° |
| 2026-05-04 15:47 | 30.83323 | 69.58828 | 33867 ft | 450 kts | 345° |
| 2026-05-04 15:47 | 30.89461 | 69.57302 | 33871 ft | 450 kts | 345° |
| 2026-05-04 15:48 | 30.95593 | 69.55774 | 33874 ft | 450 kts | 345° |
| 2026-05-04 15:48 | 31.04736 | 69.53494 | 33868 ft | 449 kts | 344° |
| 2026-05-04 15:49 | 31.10849 | 69.51962 | 33871 ft | 449 kts | 344° |
| 2026-05-04 15:49 | 31.16952 | 69.50431 | 33868 ft | 448 kts | 344° |
| 2026-05-04 15:50 | 31.23047 | 69.48904 | 33873 ft | 447 kts | 344° |
| 2026-05-04 15:50 | 31.29120 | 69.47356 | 33874 ft | 445 kts | 342° |
| 2026-05-04 15:51 | 31.34849 | 69.44860 | 33867 ft | 438 kts | 328° |
| 2026-05-04 15:51 | 31.39554 | 69.40509 | 33872 ft | 434 kts | 312° |
| 2026-05-04 15:52 | 31.43331 | 69.35000 | 33870 ft | 434 kts | 307° |
| 2026-05-04 15:52 | 31.46959 | 69.29340 | 33869 ft | 434 kts | 308° |
| 2026-05-04 15:53 | 31.50652 | 69.23737 | 33874 ft | 434 kts | 308° |
| 2026-05-04 15:53 | 31.54386 | 69.18164 | 33882 ft | 435 kts | 308° |
| 2026-05-04 15:54 | 31.58139 | 69.12579 | 33881 ft | 435 kts | 308° |
| 2026-05-04 15:54 | 31.61884 | 69.06997 | 33885 ft | 436 kts | 308° |
| 2026-05-04 15:55 | 31.65634 | 69.01399 | 33887 ft | 436 kts | 308° |
| 2026-05-04 15:55 | 31.69482 | 68.95874 | 33887 ft | 437 kts | 310° |
| 2026-05-04 15:56 | 31.73375 | 68.90439 | 33887 ft | 437 kts | 310° |
| 2026-05-04 15:56 | 31.77295 | 68.84974 | 33889 ft | 437 kts | 310° |
| 2026-05-04 15:57 | 31.81209 | 68.79497 | 33879 ft | 437 kts | 310° |
| 2026-05-04 15:57 | 31.85117 | 68.74016 | 33872 ft | 437 kts | 310° |
| 2026-05-04 15:58 | 31.89027 | 68.68523 | 33876 ft | 437 kts | 310° |
| 2026-05-04 15:58 | 31.92930 | 68.63031 | 33878 ft | 436 kts | 310° |
| 2026-05-04 15:59 | 31.96796 | 68.57584 | 33883 ft | 436 kts | 310° |
| 2026-05-04 15:59 | 32.00678 | 68.52106 | 33880 ft | 435 kts | 310° |
| 2026-05-04 16:00 | 32.04549 | 68.46636 | 33888 ft | 434 kts | 310° |
| 2026-05-04 16:00 | 32.08413 | 68.41169 | 33884 ft | 433 kts | 309° |
| 2026-05-04 16:01 | 32.12261 | 68.35716 | 33884 ft | 433 kts | 309° |
| 2026-05-04 16:01 | 32.16108 | 68.30256 | 33885 ft | 432 kts | 309° |
| 2026-05-04 16:02 | 32.19947 | 68.24795 | 33881 ft | 432 kts | 309° |
| 2026-05-04 16:03 | 32.25660 | 68.16613 | 33879 ft | 432 kts | 309° |
| 2026-05-04 16:03 | 32.29496 | 68.11132 | 33875 ft | 432 kts | 309° |
| 2026-05-04 16:04 | 32.33329 | 68.05655 | 33872 ft | 433 kts | 309° |
| 2026-05-04 16:04 | 32.39090 | 67.97410 | 33864 ft | 434 kts | 309° |
| 2026-05-04 16:05 | 32.42935 | 67.91897 | 33864 ft | 435 kts | 309° |
| 2026-05-04 16:06 | 32.48706 | 67.83607 | 33855 ft | 435 kts | 309° |
| 2026-05-04 16:07 | 32.56634 | 67.72810 | 33856 ft | 435 kts | 311° |
| 2026-05-04 16:08 | 32.64679 | 67.62074 | 33870 ft | 435 kts | 311° |
| 2026-05-04 16:09 | 32.74711 | 67.48609 | 33882 ft | 434 kts | 311° |
| 2026-05-04 16:10 | 32.82509 | 67.37720 | 33908 ft | 433 kts | 309° |
| 2026-05-04 16:11 | 32.90198 | 67.26701 | 33944 ft | 432 kts | 309° |
| 2026-05-04 16:12 | 33.01693 | 67.10216 | 33981 ft | 432 kts | 309° |
| 2026-05-04 16:13 | 33.09346 | 66.99200 | 33995 ft | 431 kts | 309° |
| 2026-05-04 16:14 | 33.16352 | 66.89089 | 33991 ft | 431 kts | 309° |
| 2026-05-04 16:16 | 33.25890 | 66.75274 | 33986 ft | 432 kts | 309° |
| 2026-05-04 16:17 | 33.35407 | 66.61390 | 33958 ft | 432 kts | 309° |
| 2026-05-04 16:18 | 33.43020 | 66.50268 | 33947 ft | 432 kts | 309° |
| 2026-05-04 16:19 | 33.52488 | 66.36353 | 33923 ft | 430 kts | 309° |
| 2026-05-04 16:20 | 33.61896 | 66.22463 | 33942 ft | 430 kts | 309° |
| 2026-05-04 16:22 | 33.71279 | 66.08561 | 33952 ft | 428 kts | 309° |
| 2026-05-04 16:23 | 33.82497 | 65.91870 | 33981 ft | 427 kts | 309° |
| 2026-05-04 16:25 | 33.93676 | 65.75160 | 34009 ft | 427 kts | 309° |
| 2026-05-04 16:26 | 34.06635 | 65.55625 | 34035 ft | 426 kts | 309° |
| 2026-05-04 16:28 | 34.15864 | 65.41718 | 34047 ft | 425 kts | 309° |
| 2026-05-04 16:29 | 34.28764 | 65.22212 | 34056 ft | 425 kts | 309° |
| 2026-05-04 16:31 | 34.37965 | 65.08233 | 34065 ft | 424 kts | 309° |
| 2026-05-04 16:32 | 34.49011 | 64.91378 | 34380 ft | 430 kts | 308° |
| 2026-05-04 16:33 | 34.52689 | 64.85709 | 34990 ft | 428 kts | 307° |
| 2026-05-04 16:33 | 34.56364 | 64.80039 | 35596 ft | 425 kts | 307° |
| 2026-05-04 16:34 | 34.60026 | 64.74396 | 36041 ft | 424 kts | 307° |
| 2026-05-04 16:34 | 34.61851 | 64.71583 | 36084 ft | 423 kts | 307° |
| 2026-05-04 16:35 | 34.72735 | 64.54766 | 36094 ft | 423 kts | 307° |
| 2026-05-04 16:36 | 34.78178 | 64.46324 | 36088 ft | 423 kts | 307° |
| 2026-05-04 16:37 | 34.83613 | 64.37875 | 36067 ft | 423 kts | 307° |
| 2026-05-04 16:38 | 34.90855 | 64.26586 | 36071 ft | 423 kts | 307° |
| 2026-05-04 16:39 | 34.99870 | 64.12479 | 36060 ft | 423 kts | 307° |
| 2026-05-04 16:40 | 35.07078 | 64.01095 | 36060 ft | 424 kts | 306° |
| 2026-05-04 16:41 | 35.16068 | 63.86915 | 36033 ft | 423 kts | 306° |
| 2026-05-04 16:43 | 35.25056 | 63.72693 | 36014 ft | 422 kts | 306° |
| 2026-05-04 16:43 | 35.30449 | 63.64127 | 36038 ft | 423 kts | 306° |
| 2026-05-04 16:45 | 35.41194 | 63.47077 | 36003 ft | 422 kts | 306° |
| 2026-05-04 16:46 | 35.50172 | 63.32796 | 35986 ft | 423 kts | 306° |
| 2026-05-04 16:47 | 35.57338 | 63.21353 | 35982 ft | 421 kts | 307° |
| 2026-05-04 16:48 | 35.64391 | 63.09875 | 35962 ft | 421 kts | 307° |
| 2026-05-04 16:49 | 35.71435 | 62.98372 | 35960 ft | 421 kts | 307° |
| 2026-05-04 16:50 | 35.78468 | 62.86857 | 35950 ft | 421 kts | 307° |
| 2026-05-04 16:51 | 35.83742 | 62.78199 | 35944 ft | 421 kts | 307° |
| 2026-05-04 16:52 | 35.90750 | 62.66659 | 35946 ft | 421 kts | 307° |
| 2026-05-04 16:53 | 35.96013 | 62.57966 | 35939 ft | 421 kts | 307° |
| 2026-05-04 16:54 | 36.03030 | 62.46343 | 35939 ft | 422 kts | 307° |
| 2026-05-04 16:55 | 36.13484 | 62.28884 | 35940 ft | 422 kts | 306° |
| 2026-05-04 16:56 | 36.22225 | 62.14260 | 35939 ft | 423 kts | 306° |
| 2026-05-04 16:57 | 36.27474 | 62.05459 | 35934 ft | 423 kts | 306° |
| 2026-05-04 16:58 | 36.34465 | 61.93700 | 35932 ft | 424 kts | 306° |
| 2026-05-04 17:00 | 36.44927 | 61.76025 | 35930 ft | 425 kts | 306° |
| 2026-05-04 17:01 | 36.53077 | 61.62193 | 35929 ft | 425 kts | 306° |
| 2026-05-04 17:02 | 36.60047 | 61.50276 | 35925 ft | 426 kts | 306° |
| 2026-05-04 17:03 | 36.65238 | 61.41258 | 35926 ft | 427 kts | 305° |
| 2026-05-04 17:03 | 36.70373 | 61.32233 | 35928 ft | 426 kts | 305° |
| 2026-05-04 17:04 | 36.77228 | 61.20155 | 35928 ft | 427 kts | 305° |
| 2026-05-04 17:05 | 36.84073 | 61.08062 | 35924 ft | 428 kts | 304° |
| 2026-05-04 17:06 | 36.89216 | 60.98947 | 35931 ft | 428 kts | 304° |
| 2026-05-04 17:07 | 36.93802 | 60.90798 | 35928 ft | 429 kts | 304° |
| 2026-05-04 17:07 | 36.97834 | 60.83688 | 35928 ft | 429 kts | 306° |
| 2026-05-04 17:08 | 37.03283 | 60.74839 | 35923 ft | 430 kts | 307° |
| 2026-05-04 17:09 | 37.06973 | 60.68940 | 35921 ft | 430 kts | 307° |
| 2026-05-04 17:09 | 37.10655 | 60.63031 | 35917 ft | 430 kts | 307° |
| 2026-05-04 17:10 | 37.19851 | 60.48193 | 35910 ft | 431 kts | 307° |
| 2026-05-04 17:11 | 37.23529 | 60.42240 | 35908 ft | 432 kts | 307° |
| 2026-05-04 17:12 | 37.29047 | 60.33289 | 35900 ft | 432 kts | 306° |
| 2026-05-04 17:13 | 37.38237 | 60.18326 | 35889 ft | 433 kts | 306° |
| 2026-05-04 17:14 | 37.45591 | 60.06304 | 35882 ft | 434 kts | 306° |
| 2026-05-04 17:15 | 37.51063 | 59.97288 | 35878 ft | 434 kts | 306° |
| 2026-05-04 17:16 | 37.58421 | 59.85139 | 35870 ft | 435 kts | 306° |
| 2026-05-04 17:17 | 37.65748 | 59.73040 | 35862 ft | 435 kts | 306° |
| 2026-05-04 17:18 | 37.73089 | 59.60874 | 35860 ft | 436 kts | 305° |
| 2026-05-04 17:19 | 37.80427 | 59.48669 | 35854 ft | 436 kts | 305° |
| 2026-05-04 17:20 | 37.87751 | 59.36440 | 35846 ft | 436 kts | 305° |
| 2026-05-04 17:20 | 37.93075 | 59.27093 | 35845 ft | 436 kts | 301° |
| 2026-05-04 17:21 | 37.99320 | 59.13939 | 35837 ft | 435 kts | 300° |
| 2026-05-04 17:22 | 38.02442 | 59.07360 | 35836 ft | 435 kts | 300° |
| 2026-05-04 17:23 | 38.08636 | 58.94352 | 35834 ft | 426 kts | 299° |
| 2026-05-04 17:24 | 38.13217 | 58.84699 | 35831 ft | 425 kts | 299° |
| 2026-05-04 17:25 | 38.19291 | 58.71857 | 35824 ft | 425 kts | 299° |
| 2026-05-04 17:26 | 38.25371 | 58.58950 | 35828 ft | 425 kts | 298° |
| 2026-05-04 17:27 | 38.32959 | 58.42770 | 35826 ft | 426 kts | 298° |
| 2026-05-04 17:28 | 38.38985 | 58.29768 | 35824 ft | 426 kts | 298° |
| 2026-05-04 17:29 | 38.46631 | 58.09409 | 35828 ft | 424 kts | 292° |
| 2026-05-04 17:31 | 38.52620 | 57.92217 | 35825 ft | 424 kts | 292° |
| 2026-05-04 17:32 | 38.58598 | 57.75030 | 35824 ft | 423 kts | 291° |
| 2026-05-04 17:33 | 38.63301 | 57.61233 | 35824 ft | 423 kts | 289° |
| 2026-05-04 17:34 | 38.67314 | 57.47103 | 35832 ft | 423 kts | 288° |
| 2026-05-04 17:35 | 38.72302 | 57.29393 | 35828 ft | 423 kts | 288° |
| 2026-05-04 17:36 | 38.74300 | 57.22297 | 35829 ft | 424 kts | 288° |
| 2026-05-04 17:36 | 38.76294 | 57.15193 | 35830 ft | 424 kts | 288° |
| 2026-05-04 17:37 | 38.78285 | 57.08080 | 35835 ft | 424 kts | 288° |
| 2026-05-04 17:37 | 38.80273 | 57.00960 | 35834 ft | 424 kts | 287° |
| 2026-05-04 17:38 | 38.82242 | 56.93886 | 35835 ft | 424 kts | 287° |
| 2026-05-04 17:38 | 38.84221 | 56.86759 | 35835 ft | 424 kts | 287° |
| 2026-05-04 17:39 | 38.87180 | 56.76063 | 35841 ft | 424 kts | 287° |
| 2026-05-04 17:39 | 38.89159 | 56.68885 | 35836 ft | 424 kts | 287° |
| 2026-05-04 17:40 | 38.91118 | 56.61741 | 35833 ft | 424 kts | 287° |
| 2026-05-04 17:40 | 38.93047 | 56.54595 | 35835 ft | 424 kts | 287° |
| 2026-05-04 17:41 | 38.94970 | 56.47500 | 35837 ft | 423 kts | 287° |
| 2026-05-04 17:41 | 38.96926 | 56.40312 | 35832 ft | 423 kts | 287° |
| 2026-05-04 17:42 | 38.98856 | 56.33216 | 35834 ft | 423 kts | 287° |
| 2026-05-04 17:42 | 39.00793 | 56.26061 | 35834 ft | 423 kts | 286° |
| 2026-05-04 17:43 | 39.02535 | 56.18851 | 35833 ft | 423 kts | 284° |
| 2026-05-04 17:43 | 39.04177 | 56.11590 | 35833 ft | 423 kts | 284° |
| 2026-05-04 17:44 | 39.05818 | 56.04320 | 35835 ft | 423 kts | 284° |
| 2026-05-04 17:44 | 39.07465 | 55.97058 | 35836 ft | 423 kts | 284° |
| 2026-05-04 17:45 | 39.09112 | 55.89789 | 35840 ft | 423 kts | 284° |
| 2026-05-04 17:45 | 39.10754 | 55.82520 | 35840 ft | 423 kts | 283° |
| 2026-05-04 17:46 | 39.12391 | 55.75252 | 35841 ft | 422 kts | 283° |
| 2026-05-04 17:46 | 39.14021 | 55.67988 | 35839 ft | 422 kts | 283° |
| 2026-05-04 17:47 | 39.15646 | 55.60726 | 35841 ft | 422 kts | 283° |
| 2026-05-04 17:47 | 39.17258 | 55.53452 | 35840 ft | 422 kts | 283° |
| 2026-05-04 17:48 | 39.18582 | 55.47409 | 35829 ft | 421 kts | 283° |
| 2026-05-04 17:48 | 39.20180 | 55.40148 | 35827 ft | 421 kts | 283° |
| 2026-05-04 17:49 | 39.21780 | 55.32885 | 35831 ft | 421 kts | 283° |
| 2026-05-04 17:49 | 39.23378 | 55.25616 | 35828 ft | 421 kts | 282° |
| 2026-05-04 17:50 | 39.24971 | 55.18346 | 35821 ft | 421 kts | 282° |
| 2026-05-04 17:50 | 39.26561 | 55.11069 | 35828 ft | 421 kts | 282° |
| 2026-05-04 17:51 | 39.28145 | 55.03789 | 35831 ft | 421 kts | 282° |
| 2026-05-04 17:51 | 39.29726 | 54.96504 | 35820 ft | 422 kts | 282° |
| 2026-05-04 17:52 | 39.31304 | 54.89205 | 35830 ft | 422 kts | 282° |
| 2026-05-04 17:52 | 39.32877 | 54.81907 | 35833 ft | 422 kts | 282° |
| 2026-05-04 17:53 | 39.34445 | 54.74606 | 35829 ft | 422 kts | 282° |
| 2026-05-04 17:53 | 39.36000 | 54.67344 | 35836 ft | 422 kts | 282° |
| 2026-05-04 17:54 | 39.37557 | 54.60045 | 35833 ft | 422 kts | 282° |
| 2026-05-04 17:54 | 39.39111 | 54.52720 | 35841 ft | 422 kts | 281° |
| 2026-05-04 17:55 | 39.40632 | 54.45394 | 35836 ft | 422 kts | 281° |
| 2026-05-04 17:55 | 39.42161 | 54.38071 | 35845 ft | 422 kts | 281° |
| 2026-05-04 17:56 | 39.43699 | 54.30743 | 35842 ft | 422 kts | 281° |
| 2026-05-04 17:56 | 39.45236 | 54.23413 | 35845 ft | 422 kts | 281° |
| 2026-05-04 17:57 | 39.46770 | 54.16075 | 35846 ft | 422 kts | 281° |
| 2026-05-04 17:57 | 39.48302 | 54.08723 | 35848 ft | 423 kts | 281° |
| 2026-05-04 17:58 | 39.50304 | 54.01547 | 35851 ft | 430 kts | 294° |
| 2026-05-04 17:58 | 39.53635 | 53.95033 | 35852 ft | 436 kts | 300° |
| 2026-05-04 17:59 | 39.57228 | 53.88688 | 35855 ft | 437 kts | 300° |
| 2026-05-04 18:00 | 39.62506 | 53.79081 | 35855 ft | 436 kts | 299° |
| 2026-05-04 18:00 | 39.65981 | 53.72626 | 35855 ft | 436 kts | 298° |
| 2026-05-04 18:01 | 39.69448 | 53.66159 | 35855 ft | 436 kts | 298° |
| 2026-05-04 18:01 | 39.72914 | 53.59683 | 35858 ft | 437 kts | 298° |
| 2026-05-04 18:02 | 39.78088 | 53.49996 | 35861 ft | 437 kts | 298° |
| 2026-05-04 18:02 | 39.81551 | 53.43495 | 35867 ft | 437 kts | 298° |
| 2026-05-04 18:03 | 39.85012 | 53.36987 | 35865 ft | 437 kts | 298° |
| 2026-05-04 18:03 | 39.88470 | 53.30469 | 35877 ft | 438 kts | 298° |
| 2026-05-04 18:04 | 39.91927 | 53.23939 | 35886 ft | 438 kts | 298° |
| 2026-05-04 18:05 | 39.97105 | 53.14130 | 35886 ft | 438 kts | 298° |
| 2026-05-04 18:05 | 40.00539 | 53.07553 | 35888 ft | 438 kts | 297° |
| 2026-05-04 18:06 | 40.05701 | 52.97690 | 35887 ft | 439 kts | 298° |
| 2026-05-04 18:06 | 40.09161 | 52.91118 | 35886 ft | 440 kts | 298° |
| 2026-05-04 18:07 | 40.12631 | 52.84523 | 35886 ft | 440 kts | 297° |
| 2026-05-04 18:07 | 40.16096 | 52.77924 | 35889 ft | 441 kts | 297° |
| 2026-05-04 18:08 | 40.19565 | 52.71304 | 35890 ft | 441 kts | 297° |
| 2026-05-04 18:08 | 40.23028 | 52.64679 | 35890 ft | 441 kts | 297° |
| 2026-05-04 18:09 | 40.28148 | 52.50519 | 35900 ft | 426 kts | 278° |
| 2026-05-04 18:10 | 40.29431 | 52.42939 | 35898 ft | 426 kts | 277° |
| 2026-05-04 18:10 | 40.30763 | 52.35363 | 35901 ft | 427 kts | 278° |
| 2026-05-04 18:11 | 40.32165 | 52.27783 | 35900 ft | 428 kts | 278° |
| 2026-05-04 18:11 | 40.33586 | 52.20212 | 35898 ft | 428 kts | 278° |
| 2026-05-04 18:12 | 40.34998 | 52.12677 | 35902 ft | 429 kts | 278° |
| 2026-05-04 18:12 | 40.36415 | 52.05081 | 35905 ft | 429 kts | 278° |
| 2026-05-04 18:13 | 40.37824 | 51.97490 | 35905 ft | 429 kts | 278° |
| 2026-05-04 18:14 | 40.39931 | 51.86081 | 35909 ft | 429 kts | 278° |
| 2026-05-04 18:14 | 40.41330 | 51.78467 | 35906 ft | 429 kts | 278° |
| 2026-05-04 18:15 | 40.44116 | 51.63216 | 35905 ft | 430 kts | 278° |
| 2026-05-04 18:16 | 40.45503 | 51.55578 | 35907 ft | 430 kts | 278° |
| 2026-05-04 18:16 | 40.46789 | 51.47928 | 35910 ft | 427 kts | 274° |
| 2026-05-04 18:17 | 40.47912 | 51.36342 | 35908 ft | 426 kts | 271° |
| 2026-05-04 18:18 | 40.48942 | 51.24743 | 35906 ft | 427 kts | 272° |
| 2026-05-04 18:18 | 40.49653 | 51.17002 | 35907 ft | 427 kts | 272° |
| 2026-05-04 18:19 | 40.50718 | 51.05378 | 35907 ft | 427 kts | 271° |
| 2026-05-04 18:19 | 40.51422 | 50.97636 | 35903 ft | 427 kts | 271° |
| 2026-05-04 18:20 | 40.52196 | 50.89876 | 35911 ft | 429 kts | 274° |
| 2026-05-04 18:20 | 40.53188 | 50.82134 | 35906 ft | 430 kts | 274° |
| 2026-05-04 18:21 | 40.54227 | 50.74390 | 35898 ft | 430 kts | 274° |
| 2026-05-04 18:21 | 40.55256 | 50.66641 | 35892 ft | 430 kts | 274° |
| 2026-05-04 18:22 | 40.56266 | 50.58936 | 35898 ft | 430 kts | 274° |
| 2026-05-04 18:22 | 40.57276 | 50.51177 | 35896 ft | 431 kts | 274° |
| 2026-05-04 18:23 | 40.58280 | 50.43413 | 35891 ft | 431 kts | 274° |
| 2026-05-04 18:23 | 40.59280 | 50.35649 | 35888 ft | 431 kts | 274° |
| 2026-05-04 18:24 | 40.60275 | 50.27874 | 35890 ft | 431 kts | 274° |
| 2026-05-04 18:24 | 40.61264 | 50.20099 | 35892 ft | 431 kts | 274° |
| 2026-05-04 18:25 | 40.62250 | 50.12308 | 35889 ft | 432 kts | 274° |
| 2026-05-04 18:25 | 40.63231 | 50.04511 | 35889 ft | 432 kts | 274° |
| 2026-05-04 18:26 | 40.64207 | 49.96712 | 35893 ft | 432 kts | 274° |
| 2026-05-04 18:26 | 40.65178 | 49.88905 | 35897 ft | 432 kts | 274° |
| 2026-05-04 18:27 | 40.66129 | 49.81077 | 35893 ft | 433 kts | 274° |
| 2026-05-04 18:27 | 40.67061 | 49.73252 | 35906 ft | 433 kts | 274° |
| 2026-05-04 18:28 | 40.68009 | 49.65410 | 35909 ft | 434 kts | 274° |
| 2026-05-04 18:28 | 40.68963 | 49.57550 | 35911 ft | 434 kts | 274° |
| 2026-05-04 18:29 | 40.69910 | 49.49695 | 35913 ft | 435 kts | 274° |
| 2026-05-04 18:29 | 40.70840 | 49.41821 | 35909 ft | 435 kts | 274° |
| 2026-05-04 18:30 | 40.72235 | 49.29989 | 35908 ft | 436 kts | 274° |
| 2026-05-04 18:31 | 40.72744 | 49.22086 | 35903 ft | 429 kts | 262° |
| 2026-05-04 18:31 | 40.72002 | 49.14311 | 35899 ft | 427 kts | 257° |
| 2026-05-04 18:32 | 40.71048 | 49.06633 | 35900 ft | 428 kts | 257° |
| 2026-05-04 18:32 | 40.70144 | 48.98889 | 35889 ft | 428 kts | 258° |
| 2026-05-04 18:33 | 40.69280 | 48.91115 | 35882 ft | 428 kts | 258° |
| 2026-05-04 18:33 | 40.68425 | 48.83356 | 35877 ft | 428 kts | 258° |
| 2026-05-04 18:34 | 40.67564 | 48.75591 | 35874 ft | 428 kts | 258° |
| 2026-05-04 18:34 | 40.66696 | 48.67824 | 35864 ft | 428 kts | 258° |
| 2026-05-04 18:35 | 40.65823 | 48.60061 | 35863 ft | 429 kts | 257° |
| 2026-05-04 18:35 | 40.64945 | 48.52300 | 35860 ft | 428 kts | 257° |
| 2026-05-04 18:36 | 40.64062 | 48.44542 | 35867 ft | 428 kts | 257° |
| 2026-05-04 18:36 | 40.63326 | 48.38111 | 35855 ft | 428 kts | 257° |
| 2026-05-04 18:37 | 40.62435 | 48.30368 | 35863 ft | 427 kts | 257° |
| 2026-05-04 18:37 | 40.61540 | 48.22638 | 35860 ft | 427 kts | 257° |
| 2026-05-04 18:38 | 40.60630 | 48.14927 | 35863 ft | 426 kts | 256° |
| 2026-05-04 18:38 | 40.59701 | 48.07237 | 35862 ft | 426 kts | 256° |
| 2026-05-04 18:39 | 40.58781 | 47.99530 | 35865 ft | 426 kts | 256° |
| 2026-05-04 18:39 | 40.58270 | 47.91746 | 35857 ft | 431 kts | 265° |
| 2026-05-04 18:40 | 40.58500 | 47.83823 | 35855 ft | 434 kts | 267° |
| 2026-05-04 18:40 | 40.58829 | 47.75905 | 35855 ft | 434 kts | 267° |
| 2026-05-04 18:41 | 40.59114 | 47.67986 | 35859 ft | 434 kts | 266° |
| 2026-05-04 18:41 | 40.59369 | 47.60050 | 35856 ft | 434 kts | 266° |
| 2026-05-04 18:42 | 40.59611 | 47.52122 | 35851 ft | 434 kts | 266° |
| 2026-05-04 18:42 | 40.59849 | 47.44173 | 35837 ft | 435 kts | 266° |
| 2026-05-04 18:43 | 40.60082 | 47.36223 | 35833 ft | 435 kts | 266° |
| 2026-05-04 18:43 | 40.60308 | 47.28317 | 35832 ft | 435 kts | 266° |
| 2026-05-04 18:44 | 40.60549 | 47.20301 | 35836 ft | 437 kts | 267° |
| 2026-05-04 18:44 | 40.61181 | 47.12317 | 35832 ft | 440 kts | 271° |
| 2026-05-04 18:45 | 40.62019 | 47.04335 | 35830 ft | 441 kts | 271° |
| 2026-05-04 18:45 | 40.62858 | 46.96382 | 35829 ft | 441 kts | 271° |
| 2026-05-04 18:46 | 40.63678 | 46.88376 | 35823 ft | 442 kts | 271° |
| 2026-05-04 18:46 | 40.64491 | 46.80304 | 35820 ft | 442 kts | 271° |
| 2026-05-04 18:47 | 40.65292 | 46.72277 | 35814 ft | 442 kts | 270° |
| 2026-05-04 18:47 | 40.66088 | 46.64244 | 35804 ft | 443 kts | 270° |
| 2026-05-04 18:48 | 40.66875 | 46.56256 | 35805 ft | 443 kts | 270° |
| 2026-05-04 18:48 | 40.67662 | 46.48193 | 35805 ft | 444 kts | 270° |
| 2026-05-04 18:49 | 40.68446 | 46.40114 | 35804 ft | 445 kts | 270° |
| 2026-05-04 18:49 | 40.69224 | 46.32028 | 35805 ft | 446 kts | 270° |
| 2026-05-04 18:50 | 40.69999 | 46.23920 | 35804 ft | 447 kts | 270° |
| 2026-05-04 18:50 | 40.70771 | 46.15782 | 35802 ft | 447 kts | 270° |
| 2026-05-04 18:51 | 40.71521 | 46.07644 | 35810 ft | 448 kts | 270° |
| 2026-05-04 18:51 | 40.72252 | 45.99477 | 35802 ft | 449 kts | 270° |
| 2026-05-04 18:52 | 40.72998 | 45.91297 | 35799 ft | 450 kts | 270° |
| 2026-05-04 18:52 | 40.73749 | 45.83111 | 35800 ft | 450 kts | 270° |
| 2026-05-04 18:53 | 40.74498 | 45.74905 | 35800 ft | 451 kts | 270° |
| 2026-05-04 18:53 | 40.75242 | 45.66687 | 35798 ft | 451 kts | 270° |
| 2026-05-04 18:54 | 40.75975 | 45.58522 | 35804 ft | 452 kts | 270° |
| 2026-05-04 18:54 | 40.76707 | 45.50278 | 35798 ft | 452 kts | 269° |
| 2026-05-04 18:55 | 40.77213 | 45.42030 | 35803 ft | 450 kts | 267° |
| 2026-05-04 18:55 | 40.77744 | 45.29649 | 35805 ft | 450 kts | 266° |
| 2026-05-04 18:56 | 40.78105 | 45.21392 | 35811 ft | 451 kts | 266° |
| 2026-05-04 18:56 | 40.78472 | 45.13126 | 35817 ft | 452 kts | 266° |
| 2026-05-04 18:57 | 40.78837 | 45.04838 | 35812 ft | 452 kts | 266° |
| 2026-05-04 18:57 | 40.79196 | 44.96555 | 35825 ft | 453 kts | 266° |
| 2026-05-04 18:58 | 40.79549 | 44.88251 | 35831 ft | 452 kts | 266° |
| 2026-05-04 18:58 | 40.79896 | 44.79957 | 35843 ft | 453 kts | 266° |
| 2026-05-04 18:59 | 40.80238 | 44.71647 | 35843 ft | 453 kts | 266° |
| 2026-05-04 18:59 | 40.80573 | 44.63341 | 35847 ft | 454 kts | 266° |
| 2026-05-04 19:00 | 40.80903 | 44.55012 | 35862 ft | 455 kts | 266° |
| 2026-05-04 19:00 | 40.81227 | 44.46668 | 35874 ft | 456 kts | 266° |
| 2026-05-04 19:01 | 40.81541 | 44.38309 | 35891 ft | 456 kts | 266° |
| 2026-05-04 19:01 | 40.81819 | 44.29935 | 35897 ft | 457 kts | 266° |
| 2026-05-04 19:02 | 40.82110 | 44.21541 | 35904 ft | 458 kts | 266° |
| 2026-05-04 19:02 | 40.82409 | 44.13116 | 36210 ft | 460 kts | 266° |
| 2026-05-04 19:03 | 40.82559 | 44.08894 | 36477 ft | 461 kts | 266° |
| 2026-05-04 19:03 | 40.82708 | 44.04670 | 36768 ft | 461 kts | 266° |
| 2026-05-04 19:03 | 40.82856 | 44.00429 | 37038 ft | 462 kts | 266° |
| 2026-05-04 19:03 | 40.83002 | 43.96204 | 37312 ft | 462 kts | 266° |
| 2026-05-04 19:04 | 40.83146 | 43.91959 | 37591 ft | 462 kts | 266° |
| 2026-05-04 19:04 | 40.83289 | 43.87724 | 37847 ft | 462 kts | 266° |
| 2026-05-04 19:04 | 40.83560 | 43.79243 | 37911 ft | 462 kts | 266° |
| 2026-05-04 19:05 | 40.83824 | 43.70773 | 37908 ft | 462 kts | 267° |
| 2026-05-04 19:05 | 40.84214 | 43.62287 | 37910 ft | 463 kts | 268° |
| 2026-05-04 19:06 | 40.84700 | 43.53796 | 37908 ft | 464 kts | 269° |
| 2026-05-04 19:06 | 40.85188 | 43.45290 | 37903 ft | 465 kts | 269° |
| 2026-05-04 19:07 | 40.85662 | 43.36761 | 37907 ft | 466 kts | 269° |
| 2026-05-04 19:07 | 40.86127 | 43.28220 | 37916 ft | 466 kts | 269° |
| 2026-05-04 19:08 | 40.86585 | 43.19665 | 37916 ft | 468 kts | 269° |
| 2026-05-04 19:08 | 40.87038 | 43.11079 | 37923 ft | 469 kts | 269° |
| 2026-05-04 19:09 | 40.87486 | 43.02478 | 37924 ft | 470 kts | 269° |
| 2026-05-04 19:09 | 40.87925 | 42.93930 | 37921 ft | 470 kts | 269° |
| 2026-05-04 19:10 | 40.88361 | 42.85305 | 37926 ft | 470 kts | 269° |
| 2026-05-04 19:10 | 40.88791 | 42.76683 | 37930 ft | 470 kts | 269° |
| 2026-05-04 19:11 | 40.89214 | 42.68052 | 37921 ft | 471 kts | 269° |
| 2026-05-04 19:11 | 40.89628 | 42.59418 | 37926 ft | 471 kts | 268° |
| 2026-05-04 19:12 | 40.90193 | 42.46473 | 37905 ft | 471 kts | 268° |
| 2026-05-04 19:13 | 40.90585 | 42.37822 | 37897 ft | 471 kts | 269° |
| 2026-05-04 19:13 | 40.90979 | 42.29177 | 37897 ft | 471 kts | 269° |
| 2026-05-04 19:14 | 40.91369 | 42.20527 | 37889 ft | 471 kts | 269° |
| 2026-05-04 19:14 | 40.91752 | 42.11873 | 37888 ft | 471 kts | 268° |
| 2026-05-04 19:15 | 40.92127 | 42.03225 | 37881 ft | 472 kts | 268° |
| 2026-05-04 19:15 | 40.92497 | 41.94557 | 37875 ft | 472 kts | 269° |
| 2026-05-04 19:16 | 40.92859 | 41.85900 | 37866 ft | 472 kts | 268° |
| 2026-05-04 19:16 | 40.93216 | 41.77232 | 37869 ft | 473 kts | 268° |
| 2026-05-04 19:17 | 40.93566 | 41.68552 | 37866 ft | 473 kts | 268° |
| 2026-05-04 19:17 | 40.93911 | 41.59847 | 37862 ft | 474 kts | 268° |
| 2026-05-04 19:18 | 40.94249 | 41.51132 | 37855 ft | 475 kts | 268° |
| 2026-05-04 19:18 | 40.94549 | 41.42420 | 37860 ft | 475 kts | 268° |
| 2026-05-04 19:19 | 40.94852 | 41.33691 | 37859 ft | 475 kts | 268° |
| 2026-05-04 19:19 | 40.95166 | 41.24951 | 37874 ft | 476 kts | 269° |
| 2026-05-04 19:20 | 40.95479 | 41.16216 | 37877 ft | 475 kts | 268° |
| 2026-05-04 19:20 | 40.95787 | 41.07468 | 37870 ft | 476 kts | 269° |
| 2026-05-04 19:21 | 40.96087 | 40.98707 | 37877 ft | 477 kts | 268° |
| 2026-05-04 19:21 | 40.96332 | 40.91426 | 37884 ft | 477 kts | 269° |
| 2026-05-04 19:22 | 40.96647 | 40.81239 | 37883 ft | 477 kts | 269° |
| 2026-05-04 19:22 | 40.96917 | 40.72459 | 37884 ft | 478 kts | 269° |
| 2026-05-04 19:23 | 40.97189 | 40.63661 | 37879 ft | 478 kts | 269° |
| 2026-05-04 19:23 | 40.97415 | 40.56301 | 37881 ft | 479 kts | 269° |
| 2026-05-04 19:24 | 40.97678 | 40.47493 | 37884 ft | 479 kts | 269° |
| 2026-05-04 19:24 | 40.97935 | 40.38693 | 37875 ft | 478 kts | 269° |
| 2026-05-04 19:25 | 40.98184 | 40.29905 | 37884 ft | 478 kts | 269° |
| 2026-05-04 19:25 | 40.98424 | 40.21114 | 37890 ft | 478 kts | 269° |
| 2026-05-04 19:26 | 40.98635 | 40.12324 | 37898 ft | 478 kts | 269° |
| 2026-05-04 19:26 | 40.98847 | 40.03538 | 37909 ft | 478 kts | 269° |
| 2026-05-04 19:27 | 40.99063 | 39.94743 | 37909 ft | 478 kts | 269° |
| 2026-05-04 19:27 | 40.99275 | 39.85956 | 37911 ft | 478 kts | 269° |
| 2026-05-04 19:28 | 40.99636 | 39.77162 | 37911 ft | 480 kts | 272° |
| 2026-05-04 19:28 | 41.00435 | 39.68382 | 37915 ft | 481 kts | 275° |
| 2026-05-04 19:29 | 41.01318 | 39.59669 | 37908 ft | 480 kts | 274° |
| 2026-05-04 19:29 | 41.02181 | 39.50844 | 37914 ft | 481 kts | 274° |
| 2026-05-04 19:30 | 41.03014 | 39.42047 | 37904 ft | 481 kts | 274° |
| 2026-05-04 19:30 | 41.03835 | 39.33251 | 37885 ft | 481 kts | 274° |
| 2026-05-04 19:31 | 41.04649 | 39.24455 | 37898 ft | 481 kts | 274° |
| 2026-05-04 19:31 | 41.05457 | 39.15654 | 37902 ft | 482 kts | 274° |
| 2026-05-04 19:32 | 41.06249 | 39.06898 | 37901 ft | 482 kts | 274° |
| 2026-05-04 19:32 | 41.07054 | 38.98075 | 37896 ft | 482 kts | 274° |
| 2026-05-04 19:33 | 41.07863 | 38.89249 | 37893 ft | 483 kts | 274° |
| 2026-05-04 19:33 | 41.08669 | 38.80425 | 37906 ft | 483 kts | 274° |
| 2026-05-04 19:34 | 41.09467 | 38.71586 | 37903 ft | 483 kts | 274° |
| 2026-05-04 19:34 | 41.10233 | 38.62743 | 37907 ft | 483 kts | 274° |
| 2026-05-04 19:35 | 41.10978 | 38.53890 | 37903 ft | 483 kts | 274° |
| 2026-05-04 19:35 | 41.11719 | 38.45036 | 37918 ft | 483 kts | 274° |
| 2026-05-04 19:36 | 41.12458 | 38.36166 | 37920 ft | 483 kts | 274° |
| 2026-05-04 19:36 | 41.13189 | 38.27324 | 37929 ft | 484 kts | 274° |
| 2026-05-04 19:37 | 41.13911 | 38.18447 | 37928 ft | 484 kts | 274° |
| 2026-05-04 19:37 | 41.14633 | 38.09570 | 37929 ft | 484 kts | 274° |
| 2026-05-04 19:38 | 41.15353 | 38.00692 | 37930 ft | 484 kts | 274° |
| 2026-05-04 19:38 | 41.16067 | 37.91811 | 37928 ft | 484 kts | 274° |
| 2026-05-04 19:39 | 41.16793 | 37.82923 | 37925 ft | 484 kts | 274° |
| 2026-05-04 19:39 | 41.17545 | 37.74039 | 37923 ft | 484 kts | 274° |
| 2026-05-04 19:40 | 41.18299 | 37.65152 | 37926 ft | 485 kts | 274° |
| 2026-05-04 19:40 | 41.18897 | 37.56248 | 37928 ft | 484 kts | 272° |
| 2026-05-04 19:41 | 41.19486 | 37.47339 | 37925 ft | 485 kts | 273° |
| 2026-05-04 19:41 | 41.20146 | 37.38434 | 37928 ft | 485 kts | 274° |
| 2026-05-04 19:42 | 41.20814 | 37.29518 | 37930 ft | 485 kts | 274° |
| 2026-05-04 19:42 | 41.21479 | 37.20602 | 37935 ft | 485 kts | 274° |
| 2026-05-04 19:43 | 41.22159 | 37.11745 | 37931 ft | 485 kts | 274° |
| 2026-05-04 19:43 | 41.22852 | 37.02831 | 37937 ft | 485 kts | 274° |
| 2026-05-04 19:44 | 41.23539 | 36.93920 | 37937 ft | 485 kts | 274° |
| 2026-05-04 19:44 | 41.24219 | 36.85003 | 37937 ft | 485 kts | 274° |
| 2026-05-04 19:45 | 41.24892 | 36.76078 | 37939 ft | 485 kts | 274° |
| 2026-05-04 19:45 | 41.25557 | 36.67160 | 37939 ft | 485 kts | 274° |
| 2026-05-04 19:46 | 41.26216 | 36.58229 | 37936 ft | 485 kts | 274° |
| 2026-05-04 19:46 | 41.26846 | 36.49291 | 37937 ft | 485 kts | 274° |
| 2026-05-04 19:47 | 41.27464 | 36.40362 | 37940 ft | 486 kts | 274° |
| 2026-05-04 19:47 | 41.28088 | 36.31409 | 37934 ft | 486 kts | 274° |
| 2026-05-04 19:48 | 41.28710 | 36.22464 | 37935 ft | 486 kts | 274° |
| 2026-05-04 19:48 | 41.29326 | 36.13517 | 37937 ft | 486 kts | 274° |
| 2026-05-04 19:49 | 41.29935 | 36.04558 | 37927 ft | 486 kts | 274° |
| 2026-05-04 19:49 | 41.30537 | 35.95601 | 37928 ft | 487 kts | 274° |
| 2026-05-04 19:50 | 41.31128 | 35.86695 | 37926 ft | 487 kts | 274° |
| 2026-05-04 19:50 | 41.31717 | 35.77716 | 37916 ft | 487 kts | 274° |
| 2026-05-04 19:51 | 41.32303 | 35.68670 | 37923 ft | 488 kts | 274° |
| 2026-05-04 19:51 | 41.32874 | 35.59738 | 37915 ft | 488 kts | 274° |
| 2026-05-04 19:52 | 41.33443 | 35.50747 | 37914 ft | 489 kts | 274° |
| 2026-05-04 19:52 | 41.33990 | 35.41717 | 37912 ft | 489 kts | 273° |
| 2026-05-04 19:53 | 41.34513 | 35.32689 | 37914 ft | 489 kts | 274° |
| 2026-05-04 19:53 | 41.35049 | 35.23675 | 37918 ft | 489 kts | 274° |
| 2026-05-04 19:54 | 41.35590 | 35.14659 | 37912 ft | 489 kts | 274° |
| 2026-05-04 19:54 | 41.36128 | 35.05600 | 37915 ft | 489 kts | 274° |
| 2026-05-04 19:55 | 41.36653 | 34.96628 | 37912 ft | 489 kts | 274° |
| 2026-05-04 19:55 | 41.37174 | 34.87589 | 37910 ft | 489 kts | 274° |
| 2026-05-04 19:56 | 41.37686 | 34.78571 | 37920 ft | 489 kts | 274° |
| 2026-05-04 19:56 | 41.38193 | 34.69541 | 37909 ft | 489 kts | 274° |
| 2026-05-04 19:57 | 41.38693 | 34.60494 | 37922 ft | 489 kts | 274° |
| 2026-05-04 19:57 | 41.39182 | 34.51511 | 37928 ft | 489 kts | 274° |
| 2026-05-04 19:58 | 41.39667 | 34.42477 | 37927 ft | 489 kts | 274° |
| 2026-05-04 19:58 | 41.40316 | 34.33476 | 37933 ft | 488 kts | 281° |
| 2026-05-04 19:59 | 41.42197 | 34.24804 | 37941 ft | 488 kts | 289° |
| 2026-05-04 19:59 | 41.44520 | 34.16308 | 37941 ft | 488 kts | 290° |
| 2026-05-04 20:00 | 41.46806 | 34.07795 | 37947 ft | 487 kts | 290° |
| 2026-05-04 20:00 | 41.49024 | 33.99262 | 37953 ft | 487 kts | 289° |
| 2026-05-04 20:01 | 41.51218 | 33.90712 | 37962 ft | 487 kts | 289° |
| 2026-05-04 20:01 | 41.53405 | 33.82163 | 37964 ft | 486 kts | 289° |
| 2026-05-04 20:02 | 41.55585 | 33.73618 | 37967 ft | 486 kts | 289° |
| 2026-05-04 20:02 | 41.57743 | 33.65133 | 37960 ft | 486 kts | 289° |
| 2026-05-04 20:03 | 41.59908 | 33.56574 | 37964 ft | 486 kts | 289° |
| 2026-05-04 20:03 | 41.62050 | 33.48006 | 37966 ft | 486 kts | 289° |
| 2026-05-04 20:04 | 41.64187 | 33.39441 | 37966 ft | 486 kts | 290° |
| 2026-05-04 20:04 | 41.66326 | 33.30864 | 37961 ft | 486 kts | 290° |
| 2026-05-04 20:05 | 41.68460 | 33.22287 | 37956 ft | 486 kts | 290° |
| 2026-05-04 20:05 | 41.70590 | 33.13695 | 37953 ft | 486 kts | 290° |
| 2026-05-04 20:06 | 41.72690 | 33.05090 | 37948 ft | 487 kts | 287° |
| 2026-05-04 20:06 | 41.73526 | 32.96159 | 37943 ft | 490 kts | 271° |
| 2026-05-04 20:07 | 41.73269 | 32.87027 | 37943 ft | 491 kts | 268° |
| 2026-05-04 20:07 | 41.72981 | 32.77899 | 37941 ft | 490 kts | 269° |
| 2026-05-04 20:08 | 41.72814 | 32.68775 | 37936 ft | 490 kts | 270° |
| 2026-05-04 20:08 | 41.72713 | 32.61199 | 37934 ft | 489 kts | 270° |
| 2026-05-04 20:09 | 41.72590 | 32.52090 | 37930 ft | 489 kts | 270° |
| 2026-05-04 20:09 | 41.72458 | 32.43006 | 37928 ft | 488 kts | 270° |
| 2026-05-04 20:10 | 41.72278 | 32.32427 | 37926 ft | 488 kts | 268° |
| 2026-05-04 20:10 | 41.71470 | 32.24881 | 37923 ft | 490 kts | 259° |
| 2026-05-04 20:11 | 41.69830 | 32.16055 | 37919 ft | 491 kts | 257° |
| 2026-05-04 20:11 | 41.68116 | 32.07194 | 37922 ft | 491 kts | 257° |
| 2026-05-04 20:12 | 41.66474 | 31.98315 | 37927 ft | 490 kts | 258° |
| 2026-05-04 20:12 | 41.64867 | 31.89463 | 37922 ft | 490 kts | 258° |
| 2026-05-04 20:13 | 41.63267 | 31.80661 | 37929 ft | 490 kts | 258° |
| 2026-05-04 20:13 | 41.61649 | 31.71818 | 37935 ft | 489 kts | 258° |
| 2026-05-04 20:14 | 41.60024 | 31.62989 | 37948 ft | 489 kts | 258° |
| 2026-05-04 20:14 | 41.58393 | 31.54167 | 37948 ft | 489 kts | 258° |
| 2026-05-04 20:15 | 41.56756 | 31.45358 | 37951 ft | 489 kts | 258° |
| 2026-05-04 20:15 | 41.55112 | 31.36549 | 37948 ft | 489 kts | 258° |
| 2026-05-04 20:16 | 41.53496 | 31.27804 | 37954 ft | 489 kts | 259° |
| 2026-05-04 20:16 | 41.51899 | 31.18980 | 37955 ft | 489 kts | 259° |
| 2026-05-04 20:17 | 41.50312 | 31.10160 | 37960 ft | 489 kts | 259° |
| 2026-05-04 20:17 | 41.48718 | 31.01332 | 37960 ft | 489 kts | 259° |
| 2026-05-04 20:18 | 41.47117 | 30.92523 | 37971 ft | 489 kts | 259° |
| 2026-05-04 20:18 | 41.45508 | 30.83710 | 37970 ft | 489 kts | 259° |
| 2026-05-04 20:19 | 41.43901 | 30.74949 | 37975 ft | 489 kts | 259° |
| 2026-05-04 20:19 | 41.42278 | 30.66144 | 37979 ft | 488 kts | 259° |
| 2026-05-04 20:20 | 41.40649 | 30.57348 | 37982 ft | 488 kts | 259° |
| 2026-05-04 20:20 | 41.39017 | 30.48574 | 37989 ft | 488 kts | 259° |
| 2026-05-04 20:21 | 41.37379 | 30.39810 | 37989 ft | 488 kts | 259° |
| 2026-05-04 20:21 | 41.34902 | 30.26672 | 38001 ft | 487 kts | 258° |
| 2026-05-04 20:22 | 41.33213 | 30.17927 | 38010 ft | 487 kts | 258° |
| 2026-05-04 20:22 | 41.31550 | 30.09261 | 38009 ft | 487 kts | 259° |
| 2026-05-04 20:23 | 41.29876 | 30.00532 | 38013 ft | 487 kts | 258° |
| 2026-05-04 20:23 | 41.28121 | 29.91842 | 38016 ft | 486 kts | 258° |
| 2026-05-04 20:24 | 41.26331 | 29.83179 | 38015 ft | 485 kts | 258° |
| 2026-05-04 20:24 | 41.24541 | 29.74525 | 38018 ft | 485 kts | 258° |
| 2026-05-04 20:25 | 41.22756 | 29.65904 | 38022 ft | 484 kts | 258° |
| 2026-05-04 20:25 | 41.20978 | 29.57346 | 38024 ft | 483 kts | 258° |
| 2026-05-04 20:26 | 41.19216 | 29.48724 | 38031 ft | 483 kts | 259° |
| 2026-05-04 20:26 | 41.17549 | 29.40081 | 38036 ft | 482 kts | 259° |
| 2026-05-04 20:27 | 41.15908 | 29.31452 | 38037 ft | 482 kts | 259° |
| 2026-05-04 20:27 | 41.14266 | 29.22869 | 38039 ft | 482 kts | 259° |
| 2026-05-04 20:28 | 41.12417 | 29.14301 | 38035 ft | 485 kts | 250° |
| 2026-05-04 20:28 | 41.09060 | 29.06479 | 38041 ft | 492 kts | 239° |
| 2026-05-04 20:29 | 41.05155 | 28.99058 | 38047 ft | 493 kts | 238° |
| 2026-05-04 20:29 | 41.01290 | 28.91554 | 38045 ft | 492 kts | 239° |
| 2026-05-04 20:30 | 40.97639 | 28.83895 | 38044 ft | 489 kts | 246° |
| 2026-05-04 20:30 | 40.95525 | 28.75482 | 38048 ft | 477 kts | 265° |
| 2026-05-04 20:31 | 40.95400 | 28.66822 | 38048 ft | 470 kts | 277° |
| 2026-05-04 20:31 | 40.95785 | 28.58197 | 38038 ft | 469 kts | 276° |
| 2026-05-04 20:32 | 40.95931 | 28.49561 | 38035 ft | 469 kts | 274° |
| 2026-05-04 20:32 | 40.95919 | 28.40932 | 38034 ft | 469 kts | 273° |
| 2026-05-04 20:33 | 40.95867 | 28.32321 | 38036 ft | 468 kts | 273° |
| 2026-05-04 20:33 | 40.95813 | 28.23772 | 38046 ft | 467 kts | 273° |
| 2026-05-04 20:34 | 40.95757 | 28.15192 | 38057 ft | 466 kts | 273° |
| 2026-05-04 20:34 | 40.95698 | 28.06610 | 38063 ft | 466 kts | 273° |
| 2026-05-04 20:35 | 40.95632 | 27.98047 | 38079 ft | 466 kts | 273° |
| 2026-05-04 20:35 | 40.95559 | 27.89482 | 38062 ft | 465 kts | 272° |
| 2026-05-04 20:36 | 40.95480 | 27.80930 | 38061 ft | 465 kts | 272° |
| 2026-05-04 20:36 | 40.95395 | 27.72376 | 38058 ft | 464 kts | 272° |
| 2026-05-04 20:37 | 40.95293 | 27.63826 | 38057 ft | 464 kts | 272° |
| 2026-05-04 20:37 | 40.95161 | 27.55290 | 38071 ft | 464 kts | 272° |
| 2026-05-04 20:38 | 40.95042 | 27.46745 | 38067 ft | 464 kts | 272° |
| 2026-05-04 20:38 | 40.94776 | 27.38202 | 38078 ft | 465 kts | 270° |
| 2026-05-04 20:39 | 40.94304 | 27.29636 | 38082 ft | 466 kts | 269° |
| 2026-05-04 20:39 | 40.93811 | 27.21089 | 38076 ft | 467 kts | 269° |
| 2026-05-04 20:40 | 40.93325 | 27.12531 | 38080 ft | 467 kts | 269° |
| 2026-05-04 20:40 | 40.92840 | 27.04016 | 38072 ft | 467 kts | 269° |
| 2026-05-04 20:41 | 40.92350 | 26.95425 | 38079 ft | 468 kts | 269° |
| 2026-05-04 20:41 | 40.91854 | 26.86839 | 38075 ft | 468 kts | 269° |
| 2026-05-04 20:42 | 40.91356 | 26.78247 | 38079 ft | 469 kts | 269° |
| 2026-05-04 20:42 | 40.90852 | 26.69645 | 38073 ft | 469 kts | 269° |
| 2026-05-04 20:43 | 40.90344 | 26.61081 | 38083 ft | 470 kts | 269° |
| 2026-05-04 20:43 | 40.89825 | 26.52443 | 38076 ft | 470 kts | 269° |
| 2026-05-04 20:44 | 40.89300 | 26.43821 | 38073 ft | 470 kts | 269° |
| 2026-05-04 20:44 | 40.88770 | 26.35211 | 38068 ft | 471 kts | 268° |
| 2026-05-04 20:45 | 40.88235 | 26.26637 | 38059 ft | 471 kts | 268° |
| 2026-05-04 20:45 | 40.87726 | 26.18029 | 38054 ft | 470 kts | 269° |
| 2026-05-04 20:46 | 40.87252 | 26.09422 | 38050 ft | 469 kts | 269° |
| 2026-05-04 20:46 | 40.86785 | 26.00838 | 38048 ft | 468 kts | 269° |
| 2026-05-04 20:47 | 40.86311 | 25.92247 | 38045 ft | 468 kts | 269° |
| 2026-05-04 20:47 | 40.85830 | 25.83668 | 38046 ft | 468 kts | 268° |
| 2026-05-04 20:48 | 40.85342 | 25.75089 | 38056 ft | 468 kts | 268° |
| 2026-05-04 20:48 | 40.84848 | 25.66519 | 38063 ft | 468 kts | 268° |
| 2026-05-04 20:49 | 40.84347 | 25.57944 | 38069 ft | 467 kts | 268° |
| 2026-05-04 20:49 | 40.83842 | 25.49401 | 38073 ft | 467 kts | 268° |
| 2026-05-04 20:50 | 40.83330 | 25.40858 | 38064 ft | 466 kts | 268° |
| 2026-05-04 20:50 | 40.82814 | 25.32338 | 38075 ft | 465 kts | 268° |
| 2026-05-04 20:51 | 40.82294 | 25.23869 | 38072 ft | 465 kts | 268° |
| 2026-05-04 20:51 | 40.81760 | 25.15360 | 38066 ft | 465 kts | 268° |
| 2026-05-04 20:52 | 40.81194 | 25.06848 | 38068 ft | 465 kts | 268° |
| 2026-05-04 20:52 | 40.80645 | 24.98338 | 38065 ft | 465 kts | 268° |
| 2026-05-04 20:53 | 40.80106 | 24.89812 | 38056 ft | 465 kts | 268° |
| 2026-05-04 20:53 | 40.79567 | 24.81314 | 38054 ft | 465 kts | 268° |
| 2026-05-04 20:54 | 40.79019 | 24.72796 | 38050 ft | 465 kts | 268° |
| 2026-05-04 20:54 | 40.78466 | 24.64306 | 38049 ft | 465 kts | 268° |
| 2026-05-04 20:55 | 40.77910 | 24.55860 | 38050 ft | 465 kts | 268° |
| 2026-05-04 20:55 | 40.77344 | 24.47365 | 38053 ft | 465 kts | 268° |
| 2026-05-04 20:56 | 40.76772 | 24.38876 | 38060 ft | 465 kts | 268° |
| 2026-05-04 20:56 | 40.76291 | 24.31815 | 38065 ft | 465 kts | 268° |
| 2026-05-04 20:57 | 40.75708 | 24.23331 | 38070 ft | 465 kts | 268° |
| 2026-05-04 20:57 | 40.75118 | 24.14845 | 38071 ft | 464 kts | 268° |
| 2026-05-04 20:58 | 40.74522 | 24.06361 | 38073 ft | 464 kts | 267° |
| 2026-05-04 20:58 | 40.73901 | 23.97887 | 38072 ft | 464 kts | 267° |
| 2026-05-04 20:59 | 40.73263 | 23.89418 | 38078 ft | 464 kts | 267° |
| 2026-05-04 20:59 | 40.72639 | 23.80946 | 38077 ft | 464 kts | 267° |
| 2026-05-04 21:00 | 40.72018 | 23.72471 | 38080 ft | 465 kts | 267° |
| 2026-05-04 21:00 | 40.71395 | 23.64040 | 38083 ft | 465 kts | 267° |
| 2026-05-04 21:01 | 40.70761 | 23.55550 | 38081 ft | 465 kts | 267° |
| 2026-05-04 21:01 | 40.70120 | 23.47058 | 38081 ft | 465 kts | 267° |
| 2026-05-04 21:02 | 40.69474 | 23.38575 | 38086 ft | 464 kts | 267° |
| 2026-05-04 21:02 | 40.68825 | 23.30159 | 38087 ft | 464 kts | 267° |
| 2026-05-04 21:03 | 40.68168 | 23.21705 | 38088 ft | 463 kts | 267° |
| 2026-05-04 21:03 | 40.67505 | 23.13256 | 38091 ft | 462 kts | 267° |
| 2026-05-04 21:04 | 40.66840 | 23.04860 | 38099 ft | 462 kts | 267° |
| 2026-05-04 21:04 | 40.66169 | 22.96466 | 38098 ft | 462 kts | 267° |
| 2026-05-04 21:05 | 40.65467 | 22.88060 | 38098 ft | 461 kts | 266° |
| 2026-05-04 21:05 | 40.64757 | 22.79677 | 38094 ft | 461 kts | 267° |
| 2026-05-04 21:06 | 40.64055 | 22.71255 | 38085 ft | 461 kts | 267° |
| 2026-05-04 21:06 | 40.63364 | 22.62919 | 38085 ft | 460 kts | 267° |
| 2026-05-04 21:07 | 40.62661 | 22.54508 | 38085 ft | 460 kts | 267° |
| 2026-05-04 21:07 | 40.61958 | 22.46181 | 38092 ft | 459 kts | 267° |
| 2026-05-04 21:08 | 40.61246 | 22.37819 | 38092 ft | 459 kts | 267° |
| 2026-05-04 21:08 | 40.60533 | 22.29520 | 38101 ft | 458 kts | 267° |
| 2026-05-04 21:09 | 40.59810 | 22.21177 | 38114 ft | 457 kts | 267° |
| 2026-05-04 21:09 | 40.59088 | 22.12919 | 38113 ft | 456 kts | 267° |
| 2026-05-04 21:10 | 40.58358 | 22.04622 | 38133 ft | 456 kts | 267° |
| 2026-05-04 21:10 | 40.57621 | 21.96322 | 38135 ft | 457 kts | 267° |
| 2026-05-04 21:11 | 40.56877 | 21.88026 | 38148 ft | 456 kts | 267° |
| 2026-05-04 21:11 | 40.56108 | 21.79749 | 38145 ft | 456 kts | 266° |
| 2026-05-04 21:12 | 40.55330 | 21.71525 | 38164 ft | 456 kts | 267° |
| 2026-05-04 21:12 | 40.54561 | 21.63246 | 38161 ft | 456 kts | 267° |
| 2026-05-04 21:13 | 40.53794 | 21.54960 | 38173 ft | 456 kts | 267° |
| 2026-05-04 21:13 | 40.53023 | 21.46684 | 38172 ft | 456 kts | 267° |
| 2026-05-04 21:14 | 40.52249 | 21.38447 | 38172 ft | 456 kts | 266° |
| 2026-05-04 21:14 | 40.51464 | 21.30161 | 38181 ft | 455 kts | 266° |
| 2026-05-04 21:15 | 40.50676 | 21.21911 | 38184 ft | 455 kts | 266° |
| 2026-05-04 21:15 | 40.49888 | 21.13722 | 38188 ft | 454 kts | 266° |
| 2026-05-04 21:16 | 40.49089 | 21.05480 | 38186 ft | 453 kts | 266° |
| 2026-05-04 21:16 | 40.48361 | 20.97299 | 38184 ft | 450 kts | 271° |
| 2026-05-04 21:17 | 40.48482 | 20.93207 | 38372 ft | 445 kts | 281° |
| 2026-05-04 21:17 | 40.49096 | 20.89238 | 38708 ft | 442 kts | 288° |
| 2026-05-04 21:17 | 40.49953 | 20.85365 | 38997 ft | 440 kts | 290° |
| 2026-05-04 21:17 | 40.50878 | 20.81520 | 39213 ft | 441 kts | 290° |
| 2026-05-04 21:18 | 40.51783 | 20.77718 | 39437 ft | 441 kts | 289° |
| 2026-05-04 21:18 | 40.52668 | 20.73856 | 39671 ft | 441 kts | 289° |
| 2026-05-04 21:18 | 40.53524 | 20.69983 | 39895 ft | 441 kts | 288° |
| 2026-05-04 21:18 | 40.54361 | 20.66097 | 40106 ft | 441 kts | 288° |
| 2026-05-04 21:19 | 40.56005 | 20.58310 | 40179 ft | 441 kts | 288° |
| 2026-05-04 21:19 | 40.57626 | 20.50566 | 40180 ft | 441 kts | 288° |
| 2026-05-04 21:20 | 40.59254 | 20.42772 | 40178 ft | 441 kts | 288° |
| 2026-05-04 21:20 | 40.60877 | 20.34978 | 40184 ft | 441 kts | 288° |
| 2026-05-04 21:21 | 40.62481 | 20.27246 | 40162 ft | 440 kts | 288° |
| 2026-05-04 21:21 | 40.64090 | 20.19463 | 40172 ft | 440 kts | 287° |
| 2026-05-04 21:22 | 40.65696 | 20.11669 | 40166 ft | 440 kts | 287° |
| 2026-05-04 21:22 | 40.67283 | 20.03932 | 40161 ft | 439 kts | 287° |
| 2026-05-04 21:23 | 40.68873 | 19.96152 | 40156 ft | 439 kts | 287° |
| 2026-05-04 21:23 | 40.70447 | 19.88408 | 40154 ft | 438 kts | 287° |
| 2026-05-04 21:24 | 40.71995 | 19.80614 | 40150 ft | 438 kts | 287° |
| 2026-05-04 21:24 | 40.73548 | 19.72836 | 40145 ft | 438 kts | 287° |
| 2026-05-04 21:25 | 40.75100 | 19.65104 | 40148 ft | 438 kts | 287° |
| 2026-05-04 21:25 | 40.76659 | 19.57332 | 40147 ft | 437 kts | 287° |
| 2026-05-04 21:26 | 40.78201 | 19.49618 | 40145 ft | 437 kts | 287° |
| 2026-05-04 21:26 | 40.79749 | 19.41844 | 40141 ft | 437 kts | 287° |
| 2026-05-04 21:27 | 40.81288 | 19.34079 | 40140 ft | 437 kts | 287° |
| 2026-05-04 21:27 | 40.82813 | 19.26358 | 40141 ft | 437 kts | 287° |
| 2026-05-04 21:28 | 40.84340 | 19.18601 | 40139 ft | 436 kts | 287° |
| 2026-05-04 21:28 | 40.85863 | 19.10826 | 40141 ft | 436 kts | 287° |
| 2026-05-04 21:29 | 40.87371 | 19.03104 | 40146 ft | 436 kts | 287° |
| 2026-05-04 21:29 | 40.89355 | 18.95582 | 40147 ft | 432 kts | 296° |
| 2026-05-04 21:30 | 40.91938 | 18.88403 | 40141 ft | 431 kts | 298° |
| 2026-05-04 21:30 | 40.94584 | 18.81259 | 40138 ft | 431 kts | 298° |
| 2026-05-04 21:31 | 40.98468 | 18.70556 | 40144 ft | 431 kts | 297° |
| 2026-05-04 21:32 | 41.01036 | 18.63402 | 40142 ft | 430 kts | 297° |
| 2026-05-04 21:32 | 41.03600 | 18.56231 | 40141 ft | 430 kts | 297° |
| 2026-05-04 21:33 | 41.06154 | 18.49074 | 40141 ft | 429 kts | 297° |
| 2026-05-04 21:33 | 41.08702 | 18.41918 | 40141 ft | 429 kts | 297° |
| 2026-05-04 21:34 | 41.11243 | 18.34760 | 40139 ft | 429 kts | 297° |
| 2026-05-04 21:34 | 41.13782 | 18.27594 | 40136 ft | 429 kts | 297° |
| 2026-05-04 21:35 | 41.16315 | 18.20427 | 40138 ft | 429 kts | 297° |
| 2026-05-04 21:35 | 41.18824 | 18.13307 | 40135 ft | 429 kts | 297° |
| 2026-05-04 21:36 | 41.21360 | 18.06092 | 40137 ft | 428 kts | 296° |
| 2026-05-04 21:36 | 41.23851 | 17.98968 | 40133 ft | 428 kts | 296° |
| 2026-05-04 21:37 | 41.26336 | 17.91770 | 40129 ft | 428 kts | 296° |
| 2026-05-04 21:37 | 41.28833 | 17.84562 | 40129 ft | 428 kts | 296° |
| 2026-05-04 21:38 | 41.31329 | 17.77379 | 40129 ft | 428 kts | 296° |
| 2026-05-04 21:38 | 41.33811 | 17.70229 | 40124 ft | 428 kts | 296° |
| 2026-05-04 21:39 | 41.36305 | 17.63026 | 40126 ft | 428 kts | 296° |
| 2026-05-04 21:39 | 41.38795 | 17.55816 | 40125 ft | 427 kts | 296° |
| 2026-05-04 21:40 | 41.41259 | 17.48660 | 40125 ft | 427 kts | 296° |
| 2026-05-04 21:40 | 41.43740 | 17.41440 | 40123 ft | 427 kts | 296° |
| 2026-05-04 21:41 | 41.46197 | 17.34267 | 40122 ft | 427 kts | 296° |
| 2026-05-04 21:41 | 41.48660 | 17.27060 | 40120 ft | 427 kts | 296° |
| 2026-05-04 21:42 | 41.51120 | 17.19845 | 40121 ft | 427 kts | 295° |
| 2026-05-04 21:42 | 41.53575 | 17.12623 | 40121 ft | 427 kts | 295° |
| 2026-05-04 21:43 | 41.56026 | 17.05397 | 40119 ft | 427 kts | 295° |
| 2026-05-04 21:43 | 41.58464 | 16.98169 | 40114 ft | 427 kts | 295° |
| 2026-05-04 21:44 | 41.60878 | 16.90911 | 40113 ft | 427 kts | 295° |
| 2026-05-04 21:44 | 41.63280 | 16.83720 | 40110 ft | 427 kts | 295° |
| 2026-05-04 21:45 | 41.65708 | 16.76474 | 40105 ft | 426 kts | 295° |
| 2026-05-04 21:45 | 41.68131 | 16.69237 | 40122 ft | 426 kts | 295° |
| 2026-05-04 21:46 | 41.70552 | 16.61983 | 40115 ft | 426 kts | 295° |
| 2026-05-04 21:46 | 41.72966 | 16.54734 | 40111 ft | 426 kts | 295° |
| 2026-05-04 21:47 | 41.74970 | 16.48700 | 40113 ft | 426 kts | 295° |
| 2026-05-04 21:47 | 41.77767 | 16.40257 | 40105 ft | 426 kts | 295° |
| 2026-05-04 21:48 | 41.80165 | 16.32995 | 40107 ft | 426 kts | 295° |
| 2026-05-04 21:48 | 41.82160 | 16.26942 | 40114 ft | 426 kts | 295° |
| 2026-05-04 21:49 | 41.84552 | 16.19663 | 40117 ft | 426 kts | 294° |
| 2026-05-04 21:49 | 41.86939 | 16.12383 | 40128 ft | 426 kts | 294° |
| 2026-05-04 21:50 | 41.89319 | 16.05102 | 40139 ft | 426 kts | 294° |
| 2026-05-04 21:50 | 41.91699 | 15.97796 | 40152 ft | 426 kts | 294° |
| 2026-05-04 21:51 | 41.94047 | 15.90474 | 40151 ft | 426 kts | 294° |
| 2026-05-04 21:51 | 41.96397 | 15.83161 | 40158 ft | 426 kts | 294° |
| 2026-05-04 21:52 | 41.98755 | 15.75852 | 40154 ft | 426 kts | 294° |
| 2026-05-04 21:52 | 42.01099 | 15.68584 | 40146 ft | 426 kts | 294° |